Puerto Banus, Marbella

>

This is an optional block (switch it off / on) in the settings - file ($SITE['banners'] = false;)

You can display ads, any other important text or photo’s using text / html or PHP code.

You can place one or more at the top and or bottom and it can all be different for content / size .



Meteosat more information blitzortung!


Radar lluvias  rain snow radar


Visita nuestra red de sitios de meteo:

Documentation for the template used

MeteoibericaRed estaciones Meteorologicas

MeteoclimaticRed estaciones Meteorologicas



Sin Advertencias climatologicas .En este momento tenemos Nivel Verde.    No hay Alarmas

Pagina Historial Weather Underground texto

Diario Resumen Diciembre 31, 2017 Unidades:  Tanto    impérial   Métrico
« Anterior Dia
Siguiente Dia »
Diario Semana Mensual Anual Personalizada
  Maxima: Minima: Media:
Temperatura: 67.6 °F /  19.8 °C 52.5 °F /  11.4 °C 59.5 °F /  15.3 °C
Punto de rocío: 55.2 °F /  12.9 °C 46.8 °F /  8.2 °C 50.5 °F /  10.3 °C
Humedad: 83 % 54 % 73 %
Velocidad del Viento: 21.9 mph /  35.2 km/h - 9.1 mph /  14.6 km/h
Ráfagas de viento: 21.9 mph /  35.2 km/h - -
Viento:- - West
Pression baro: 30.4 in /  1030.7 hPa 30.2 in /  1023.9 hPa -
Précipitaciones: 0 in /  0.0 mm    
Historical Graphs
 
 
Datos de tabla para Diciembre 31, 2017
Tiempo Temperatura Punto de rocío Pression baro Viento Velocidad del Viento Ráfagas de viento Humedad Las precipitaciones Rate ( Hora )
00:03 55.4 °F /  13.0 °C 50.4 °F /  10.2 °C 30.3 in /  1025.6 hPa North 5.8 mph /  9.3 km/h 5.8 mph /  9.3 km/h 83 % 0 in /  0.0 mm
00:04 55.4 °F /  13.0 °C 50.4 °F /  10.2 °C 30.3 in /  1025.6 hPa North 6.9 mph /  11.1 km/h 6.9 mph /  11.1 km/h 83 % 0 in /  0.0 mm
00:09 55.6 °F /  13.1 °C 50.2 °F /  10.1 °C 30.3 in /  1025.6 hPa North 9.2 mph /  14.8 km/h 9.2 mph /  14.8 km/h 82 % 0 in /  0.0 mm
00:11 55.6 °F /  13.1 °C 50.2 °F /  10.1 °C 30.3 in /  1025.6 hPa North 8.1 mph /  13.0 km/h 8.1 mph /  13.0 km/h 82 % 0 in /  0.0 mm
00:15 55.8 °F /  13.2 °C 50.4 °F /  10.2 °C 30.3 in /  1025.6 hPa North 6.9 mph /  11.1 km/h 6.9 mph /  11.1 km/h 82 % 0 in /  0.0 mm
00:16 55.8 °F /  13.2 °C 50.4 °F /  10.2 °C 30.3 in /  1025.6 hPa North 8.1 mph /  13.0 km/h 8.1 mph /  13.0 km/h 82 % 0 in /  0.0 mm
00:21 55.6 °F /  13.1 °C 50.2 °F /  10.1 °C 30.3 in /  1025.6 hPa North 8.1 mph /  13.0 km/h 8.1 mph /  13.0 km/h 82 % 0 in /  0.0 mm
00:22 55.6 °F /  13.1 °C 50.2 °F /  10.1 °C 30.3 in /  1025.6 hPa North 8.1 mph /  13.0 km/h 8.1 mph /  13.0 km/h 82 % 0 in /  0.0 mm
00:26 55.6 °F /  13.1 °C 50.2 °F /  10.1 °C 30.3 in /  1025.6 hPa North 8.1 mph /  13.0 km/h 8.1 mph /  13.0 km/h 82 % 0 in /  0.0 mm
00:28 55.6 °F /  13.1 °C 50.2 °F /  10.1 °C 30.3 in /  1025.6 hPa NNW 8.1 mph /  13.0 km/h 8.1 mph /  13.0 km/h 82 % 0 in /  0.0 mm
00:33 55.4 °F /  13.0 °C 50 °F /  10.0 °C 30.3 in /  1025.6 hPa North 6.9 mph /  11.1 km/h 6.9 mph /  11.1 km/h 82 % 0 in /  0.0 mm
00:34 55.4 °F /  13.0 °C 50 °F /  10.0 °C 30.3 in /  1025.6 hPa North 6.9 mph /  11.1 km/h 6.9 mph /  11.1 km/h 82 % 0 in /  0.0 mm
00:39 55.4 °F /  13.0 °C 50 °F /  10.0 °C 30.3 in /  1025.6 hPa North 5.8 mph /  9.3 km/h 5.8 mph /  9.3 km/h 82 % 0 in /  0.0 mm
00:44 55.6 °F /  13.1 °C 49.8 °F /  9.9 °C 30.3 in /  1025.6 hPa North 6.9 mph /  11.1 km/h 6.9 mph /  11.1 km/h 81 % 0 in /  0.0 mm
00:48 55.6 °F /  13.1 °C 49.8 °F /  9.9 °C 30.3 in /  1025.6 hPa North 7 mph /  11.3 km/h 7 mph /  11.3 km/h 81 % 0 in /  0.0 mm
00:53 55.6 °F /  13.1 °C 49.8 °F /  9.9 °C 30.3 in /  1025.6 hPa North 7 mph /  11.3 km/h 7 mph /  11.3 km/h 81 % 0 in /  0.0 mm
00:54 55.6 °F /  13.1 °C 49.8 °F /  9.9 °C 30.3 in /  1025.6 hPa NNW 6.9 mph /  11.1 km/h 6.9 mph /  11.1 km/h 81 % 0 in /  0.0 mm
00:59 55.6 °F /  13.1 °C 49.8 °F /  9.9 °C 30.3 in /  1025.6 hPa NNW 6 mph /  9.7 km/h 6 mph /  9.7 km/h 81 % 0 in /  0.0 mm
01:00 55.6 °F /  13.1 °C 49.8 °F /  9.9 °C 30.3 in /  1025.6 hPa NNW 6 mph /  9.7 km/h 6 mph /  9.7 km/h 81 % 0 in /  0.0 mm
01:01 55.6 °F /  13.1 °C 49.8 °F /  9.9 °C 30.3 in /  1025.6 hPa North 6.9 mph /  11.1 km/h 6.9 mph /  11.1 km/h 81 % 0 in /  0.0 mm
01:06 55.6 °F /  13.1 °C 49.8 °F /  9.9 °C 30.3 in /  1025.3 hPa North 6.9 mph /  11.1 km/h 6.9 mph /  11.1 km/h 81 % 0 in /  0.0 mm
01:11 55.6 °F /  13.1 °C 49.8 °F /  9.9 °C 30.3 in /  1025.6 hPa NNW 5.8 mph /  9.3 km/h 5.8 mph /  9.3 km/h 81 % 0 in /  0.0 mm
01:12 55.6 °F /  13.1 °C 49.8 °F /  9.9 °C 30.3 in /  1025.6 hPa NNW 5.8 mph /  9.3 km/h 5.8 mph /  9.3 km/h 81 % 0 in /  0.0 mm
01:13 55.6 °F /  13.1 °C 49.8 °F /  9.9 °C 30.3 in /  1025.6 hPa NNW 6 mph /  9.7 km/h 6 mph /  9.7 km/h 81 % 0 in /  0.0 mm
01:17 55.8 °F /  13.2 °C 50 °F /  10.0 °C 30.3 in /  1025.6 hPa North 3.5 mph /  5.6 km/h 3.5 mph /  5.6 km/h 81 % 0 in /  0.0 mm
01:22 55.8 °F /  13.2 °C 49.6 °F /  9.8 °C 30.3 in /  1025.3 hPa North 5.8 mph /  9.3 km/h 5.8 mph /  9.3 km/h 80 % 0 in /  0.0 mm
01:24 55.8 °F /  13.2 °C 49.6 °F /  9.8 °C 30.3 in /  1025.3 hPa North 6 mph /  9.7 km/h 6 mph /  9.7 km/h 80 % 0 in /  0.0 mm
01:25 55.8 °F /  13.2 °C 49.6 °F /  9.8 °C 30.3 in /  1025.3 hPa North 5 mph /  8.0 km/h 6 mph /  9.7 km/h 80 % 0 in /  0.0 mm
01:30 55.6 °F /  13.1 °C 49.5 °F /  9.7 °C 30.3 in /  1025.3 hPa NNW 5 mph /  8.0 km/h 5 mph /  8.0 km/h 80 % 0 in /  0.0 mm
01:31 55.4 °F /  13.0 °C 49.3 °F /  9.6 °C 30.3 in /  1025.3 hPa North 5.8 mph /  9.3 km/h 5.8 mph /  9.3 km/h 80 % 0 in /  0.0 mm
01:36 55.2 °F /  12.9 °C 49.5 °F /  9.7 °C 30.3 in /  1025.3 hPa NNW 5.8 mph /  9.3 km/h 5.8 mph /  9.3 km/h 81 % 0 in /  0.0 mm
01:40 55 °F /  12.8 °C 49.5 °F /  9.7 °C 30.3 in /  1025.6 hPa North 6 mph /  9.7 km/h 6 mph /  9.7 km/h 81 % 0 in /  0.0 mm
01:43 55 °F /  12.8 °C 49.3 °F /  9.6 °C 30.3 in /  1025.6 hPa NNW 5.8 mph /  9.3 km/h 5.8 mph /  9.3 km/h 81 % 0 in /  0.0 mm
01:45 55 °F /  12.8 °C 49.3 °F /  9.6 °C 30.3 in /  1025.6 hPa NNW 5.8 mph /  9.3 km/h 5.8 mph /  9.3 km/h 81 % 0 in /  0.0 mm
01:49 55 °F /  12.8 °C 49.3 °F /  9.6 °C 30.3 in /  1025.3 hPa NNW 5.8 mph /  9.3 km/h 5.8 mph /  9.3 km/h 81 % 0 in /  0.0 mm
01:51 55 °F /  12.8 °C 49.5 °F /  9.7 °C 30.3 in /  1025.3 hPa North 4.6 mph /  7.4 km/h 4.6 mph /  7.4 km/h 81 % 0 in /  0.0 mm
01:54 55 °F /  12.8 °C 49.3 °F /  9.6 °C 30.3 in /  1025.3 hPa NNW 6.9 mph /  11.1 km/h 6.9 mph /  11.1 km/h 81 % 0 in /  0.0 mm
01:56 55 °F /  12.8 °C 49.3 °F /  9.6 °C 30.3 in /  1025.3 hPa North 8.1 mph /  13.0 km/h 8.1 mph /  13.0 km/h 81 % 0 in /  0.0 mm
02:01 54.9 °F /  12.7 °C 49.3 °F /  9.6 °C 30.3 in /  1025.3 hPa North 6 mph /  9.7 km/h 6 mph /  9.7 km/h 81 % 0 in /  0.0 mm
02:02 54.9 °F /  12.7 °C 49.3 °F /  9.6 °C 30.3 in /  1025.3 hPa North 6 mph /  9.7 km/h 6 mph /  9.7 km/h 81 % 0 in /  0.0 mm
02:07 54.7 °F /  12.6 °C 48.9 °F /  9.4 °C 30.3 in /  1025.3 hPa North 8.1 mph /  13.0 km/h 8.1 mph /  13.0 km/h 81 % 0 in /  0.0 mm
02:08 54.7 °F /  12.6 °C 48.9 °F /  9.4 °C 30.3 in /  1025.3 hPa North 8.1 mph /  13.0 km/h 8.1 mph /  13.0 km/h 81 % 0 in /  0.0 mm
02:13 54.5 °F /  12.5 °C 49.1 °F /  9.5 °C 30.3 in /  1025.3 hPa NNW 4.6 mph /  7.4 km/h 4.6 mph /  7.4 km/h 82 % 0 in /  0.0 mm
02:16 54.7 °F /  12.6 °C 49.3 °F /  9.6 °C 30.3 in /  1025.3 hPa NNW 6 mph /  9.7 km/h 6 mph /  9.7 km/h 82 % 0 in /  0.0 mm
02:20 54.7 °F /  12.6 °C 49.3 °F /  9.6 °C 30.3 in /  1025.3 hPa North 5.8 mph /  9.3 km/h 5.8 mph /  9.3 km/h 82 % 0 in /  0.0 mm
02:23 54.5 °F /  12.5 °C 49.1 °F /  9.5 °C 30.3 in /  1025.3 hPa North 6 mph /  9.7 km/h 6 mph /  9.7 km/h 82 % 0 in /  0.0 mm
02:26 54.3 °F /  12.4 °C 48.9 °F /  9.4 °C 30.3 in /  1025.3 hPa North 6.9 mph /  11.1 km/h 6.9 mph /  11.1 km/h 82 % 0 in /  0.0 mm
02:28 54.3 °F /  12.4 °C 48.9 °F /  9.4 °C 30.3 in /  1025.3 hPa North 5.8 mph /  9.3 km/h 5.8 mph /  9.3 km/h 82 % 0 in /  0.0 mm
02:31 54.3 °F /  12.4 °C 48.9 °F /  9.4 °C 30.3 in /  1025.3 hPa North 6.9 mph /  11.1 km/h 6.9 mph /  11.1 km/h 82 % 0 in /  0.0 mm
02:36 54.1 °F /  12.3 °C 48.7 °F /  9.3 °C 30.3 in /  1025.3 hPa North 5.8 mph /  9.3 km/h 5.8 mph /  9.3 km/h 82 % 0 in /  0.0 mm
02:41 54.1 °F /  12.3 °C 48.7 °F /  9.3 °C 30.3 in /  1025.3 hPa North 4 mph /  6.4 km/h 4 mph /  6.4 km/h 82 % 0 in /  0.0 mm
02:42 54.1 °F /  12.3 °C 48.7 °F /  9.3 °C 30.3 in /  1025.3 hPa North 4 mph /  6.4 km/h 4 mph /  6.4 km/h 82 % 0 in /  0.0 mm
02:44 54.1 °F /  12.3 °C 48.7 °F /  9.3 °C 30.3 in /  1025.3 hPa North 4.6 mph /  7.4 km/h 4.6 mph /  7.4 km/h 82 % 0 in /  0.0 mm
02:47 54.1 °F /  12.3 °C 48.7 °F /  9.3 °C 30.3 in /  1025.3 hPa North 5 mph /  8.0 km/h 5 mph /  8.0 km/h 82 % 0 in /  0.0 mm
02:52 54.1 °F /  12.3 °C 48.7 °F /  9.3 °C 30.3 in /  1025.3 hPa North 4.6 mph /  7.4 km/h 4.6 mph /  7.4 km/h 82 % 0 in /  0.0 mm
02:53 54.1 °F /  12.3 °C 48.7 °F /  9.3 °C 30.3 in /  1025.3 hPa North 5.8 mph /  9.3 km/h 5.8 mph /  9.3 km/h 82 % 0 in /  0.0 mm
02:54 54.1 °F /  12.3 °C 48.7 °F /  9.3 °C 30.3 in /  1025.3 hPa North 5.8 mph /  9.3 km/h 5.8 mph /  9.3 km/h 82 % 0 in /  0.0 mm
02:59 54.1 °F /  12.3 °C 48.7 °F /  9.3 °C 30.3 in /  1025.3 hPa NNW 5.8 mph /  9.3 km/h 5.8 mph /  9.3 km/h 82 % 0 in /  0.0 mm
03:04 54.1 °F /  12.3 °C 48.7 °F /  9.3 °C 30.3 in /  1025.3 hPa NNW 5.8 mph /  9.3 km/h 5.8 mph /  9.3 km/h 82 % 0 in /  0.0 mm
03:05 54.1 °F /  12.3 °C 48.7 °F /  9.3 °C 30.3 in /  1025.3 hPa NNW 6.9 mph /  11.1 km/h 6.9 mph /  11.1 km/h 82 % 0 in /  0.0 mm
03:10 54.1 °F /  12.3 °C 48.7 °F /  9.3 °C 30.3 in /  1025.3 hPa NW 4.6 mph /  7.4 km/h 4.6 mph /  7.4 km/h 82 % 0 in /  0.0 mm
03:11 54.1 °F /  12.3 °C 48.7 °F /  9.3 °C 30.3 in /  1025.3 hPa NW 4.6 mph /  7.4 km/h 4.6 mph /  7.4 km/h 82 % 0 in /  0.0 mm
03:15 54.3 °F /  12.4 °C 48.9 °F /  9.4 °C 30.3 in /  1025.3 hPa NW 4.6 mph /  7.4 km/h 4.6 mph /  7.4 km/h 82 % 0 in /  0.0 mm
03:17 54.3 °F /  12.4 °C 48.9 °F /  9.4 °C 30.3 in /  1025.3 hPa NNW 4.6 mph /  7.4 km/h 4.6 mph /  7.4 km/h 82 % 0 in /  0.0 mm
03:22 54.7 °F /  12.6 °C 49.3 °F /  9.6 °C 30.3 in /  1025.3 hPa NNW 3.5 mph /  5.6 km/h 3.5 mph /  5.6 km/h 82 % 0 in /  0.0 mm
03:24 54.7 °F /  12.6 °C 49.3 °F /  9.6 °C 30.3 in /  1025.3 hPa NNW 2.3 mph /  3.7 km/h   82 % 0 in /  0.0 mm
03:26 54.7 °F /  12.6 °C 49.3 °F /  9.6 °C 30.3 in /  1025.3 hPa Calm     82 % 0 in /  0.0 mm
03:29 54.5 °F /  12.5 °C 49.1 °F /  9.5 °C 30.3 in /  1025.3 hPa NNW 4 mph /  6.4 km/h 4 mph /  6.4 km/h 82 % 0 in /  0.0 mm
03:34 54.3 °F /  12.4 °C 48.9 °F /  9.4 °C 30.3 in /  1024.9 hPa North 4.6 mph /  7.4 km/h 4.6 mph /  7.4 km/h 82 % 0 in /  0.0 mm
03:35 54.3 °F /  12.4 °C 48.9 °F /  9.4 °C 30.3 in /  1025.3 hPa North 4.6 mph /  7.4 km/h 4.6 mph /  7.4 km/h 82 % 0 in /  0.0 mm
03:40 54.1 °F /  12.3 °C 48.7 °F /  9.3 °C 30.3 in /  1024.9 hPa North 6 mph /  9.7 km/h 7 mph /  11.3 km/h 82 % 0 in /  0.0 mm
03:41 54.1 °F /  12.3 °C 48.7 °F /  9.3 °C 30.3 in /  1024.9 hPa North 6.9 mph /  11.1 km/h 6.9 mph /  11.1 km/h 82 % 0 in /  0.0 mm
03:46 54 °F /  12.2 °C 48.6 °F /  9.2 °C 30.3 in /  1024.9 hPa NNW 5.8 mph /  9.3 km/h 5.8 mph /  9.3 km/h 82 % 0 in /  0.0 mm
03:51 53.8 °F /  12.1 °C 48.4 °F /  9.1 °C 30.3 in /  1024.9 hPa NNW 6.9 mph /  11.1 km/h 6.9 mph /  11.1 km/h 82 % 0 in /  0.0 mm
03:56 53.6 °F /  12.0 °C 48.6 °F /  9.2 °C 30.3 in /  1024.9 hPa NNW 4.6 mph /  7.4 km/h 4.6 mph /  7.4 km/h 83 % 0 in /  0.0 mm
03:57 53.6 °F /  12.0 °C 48.6 °F /  9.2 °C 30.3 in /  1024.6 hPa North 6.9 mph /  11.1 km/h 6.9 mph /  11.1 km/h 83 % 0 in /  0.0 mm
03:58 53.6 °F /  12.0 °C 48.6 °F /  9.2 °C 30.3 in /  1024.6 hPa North 6.9 mph /  11.1 km/h 6.9 mph /  11.1 km/h 83 % 0 in /  0.0 mm
04:03 53.4 °F /  11.9 °C 48.6 °F /  9.2 °C 30.3 in /  1024.6 hPa North 6.9 mph /  11.1 km/h 6.9 mph /  11.1 km/h 83 % 0 in /  0.0 mm
04:07 53.6 °F /  12.0 °C 48.6 °F /  9.2 °C 30.3 in /  1024.6 hPa North 6.9 mph /  11.1 km/h 6.9 mph /  11.1 km/h 83 % 0 in /  0.0 mm
04:08 53.6 °F /  12.0 °C 48.6 °F /  9.2 °C 30.3 in /  1024.6 hPa North 5.8 mph /  9.3 km/h 5.8 mph /  9.3 km/h 83 % 0 in /  0.0 mm
04:14 53.8 °F /  12.1 °C 48.7 °F /  9.3 °C 30.3 in /  1024.6 hPa North 4.6 mph /  7.4 km/h 4.6 mph /  7.4 km/h 83 % 0 in /  0.0 mm
04:21 53.8 °F /  12.1 °C 48.7 °F /  9.3 °C 30.3 in /  1024.6 hPa NNW 5.8 mph /  9.3 km/h 5.8 mph /  9.3 km/h 83 % 0 in /  0.0 mm
04:24 53.8 °F /  12.1 °C 48.7 °F /  9.3 °C 30.3 in /  1024.6 hPa NNW 5.8 mph /  9.3 km/h 5.8 mph /  9.3 km/h 83 % 0 in /  0.0 mm
04:29 54 °F /  12.2 °C 48.9 °F /  9.4 °C 30.3 in /  1024.6 hPa NNW 5.8 mph /  9.3 km/h 5.8 mph /  9.3 km/h 83 % 0 in /  0.0 mm
04:34 54 °F /  12.2 °C 48.9 °F /  9.4 °C 30.3 in /  1024.6 hPa Calm     83 % 0 in /  0.0 mm
04:36 54 °F /  12.2 °C 48.9 °F /  9.4 °C 30.3 in /  1024.6 hPa Calm   0.1 mph /  0.2 km/h 83 % 0 in /  0.0 mm
04:37 54 °F /  12.2 °C 48.9 °F /  9.4 °C 30.3 in /  1024.6 hPa NNW 1.2 mph /  1.9 km/h   83 % 0 in /  0.0 mm
04:42 54 °F /  12.2 °C 48.9 °F /  9.4 °C 30.3 in /  1024.6 hPa NNW 2.3 mph /  3.7 km/h 2.3 mph /  3.7 km/h 83 % 0 in /  0.0 mm
04:43 54 °F /  12.2 °C 48.9 °F /  9.4 °C 30.3 in /  1024.6 hPa NNW 2.3 mph /  3.7 km/h 2.3 mph /  3.7 km/h 83 % 0 in /  0.0 mm
04:44 54 °F /  12.2 °C 48.6 °F /  9.2 °C 30.3 in /  1024.6 hPa NNW 2.3 mph /  3.7 km/h 2.3 mph /  3.7 km/h 82 % 0 in /  0.0 mm
04:49 54 °F /  12.2 °C 48.6 °F /  9.2 °C 30.3 in /  1024.6 hPa NNW 3.5 mph /  5.6 km/h 3.5 mph /  5.6 km/h 82 % 0 in /  0.0 mm
04:50 54 °F /  12.2 °C 48.6 °F /  9.2 °C 30.3 in /  1024.6 hPa NNW 3.5 mph /  5.6 km/h 3.5 mph /  5.6 km/h 82 % 0 in /  0.0 mm
04:54 54 °F /  12.2 °C 48.6 °F /  9.2 °C 30.3 in /  1024.3 hPa NNW 6.9 mph /  11.1 km/h 6.9 mph /  11.1 km/h 82 % 0 in /  0.0 mm
04:59 54 °F /  12.2 °C 48.6 °F /  9.2 °C 30.3 in /  1024.3 hPa NNW 5.8 mph /  9.3 km/h 5.8 mph /  9.3 km/h 82 % 0 in /  0.0 mm
05:01 54 °F /  12.2 °C 48.6 °F /  9.2 °C 30.3 in /  1024.3 hPa North 6 mph /  9.7 km/h 6 mph /  9.7 km/h 82 % 0 in /  0.0 mm
05:05 54 °F /  12.2 °C 48.6 °F /  9.2 °C 30.3 in /  1024.3 hPa NNW 4.6 mph /  7.4 km/h 4.6 mph /  7.4 km/h 82 % 0 in /  0.0 mm
05:06 54 °F /  12.2 °C 48.6 °F /  9.2 °C 30.3 in /  1024.3 hPa North 4.6 mph /  7.4 km/h 4.6 mph /  7.4 km/h 82 % 0 in /  0.0 mm
05:11 54 °F /  12.2 °C 48.6 °F /  9.2 °C 30.3 in /  1024.3 hPa North 4.6 mph /  7.4 km/h 4.6 mph /  7.4 km/h 82 % 0 in /  0.0 mm
05:14 54 °F /  12.2 °C 48.6 °F /  9.2 °C 30.2 in /  1023.9 hPa NNW 4.6 mph /  7.4 km/h 4.6 mph /  7.4 km/h 82 % 0 in /  0.0 mm
05:16 54 °F /  12.2 °C 48.6 °F /  9.2 °C 30.3 in /  1024.3 hPa North 4.6 mph /  7.4 km/h 4.6 mph /  7.4 km/h 82 % 0 in /  0.0 mm
05:20 53.8 °F /  12.1 °C 48.4 °F /  9.1 °C 30.3 in /  1024.3 hPa North 5.8 mph /  9.3 km/h 5.8 mph /  9.3 km/h 82 % 0 in /  0.0 mm
05:25 53.4 °F /  11.9 °C 48 °F /  8.9 °C 30.2 in /  1023.9 hPa North 6.9 mph /  11.1 km/h 6.9 mph /  11.1 km/h 82 % 0 in /  0.0 mm
05:28 53.4 °F /  11.9 °C 48 °F /  8.9 °C 30.3 in /  1024.3 hPa North 7 mph /  11.3 km/h 7 mph /  11.3 km/h 82 % 0 in /  0.0 mm
05:33 53.2 °F /  11.8 °C 47.8 °F /  8.8 °C 30.3 in /  1024.3 hPa North 6.9 mph /  11.1 km/h 6.9 mph /  11.1 km/h 82 % 0 in /  0.0 mm
05:34 53.2 °F /  11.8 °C 47.8 °F /  8.8 °C 30.3 in /  1024.3 hPa North 6.9 mph /  11.1 km/h 6.9 mph /  11.1 km/h 82 % 0 in /  0.0 mm
05:39 53.2 °F /  11.8 °C 47.8 °F /  8.8 °C 30.3 in /  1024.3 hPa North 6.9 mph /  11.1 km/h 6.9 mph /  11.1 km/h 82 % 0 in /  0.0 mm
05:42 53.2 °F /  11.8 °C 47.8 °F /  8.8 °C 30.3 in /  1024.3 hPa NNW 6 mph /  9.7 km/h 6 mph /  9.7 km/h 82 % 0 in /  0.0 mm
05:45 53.2 °F /  11.8 °C 48.2 °F /  9.0 °C 30.3 in /  1024.3 hPa North 5.8 mph /  9.3 km/h 5.8 mph /  9.3 km/h 83 % 0 in /  0.0 mm
05:50 53.2 °F /  11.8 °C 47.8 °F /  8.8 °C 30.3 in /  1024.3 hPa North 4.6 mph /  7.4 km/h 4.6 mph /  7.4 km/h 82 % 0 in /  0.0 mm
05:51 53.2 °F /  11.8 °C 47.8 °F /  8.8 °C 30.3 in /  1024.3 hPa North 4.6 mph /  7.4 km/h 4.6 mph /  7.4 km/h 82 % 0 in /  0.0 mm
05:56 53.2 °F /  11.8 °C 48.4 °F /  9.1 °C 30.3 in /  1024.3 hPa North 3.5 mph /  5.6 km/h 3.5 mph /  5.6 km/h 83 % 0 in /  0.0 mm
05:57 53.4 °F /  11.9 °C 48.4 °F /  9.1 °C 30.3 in /  1024.3 hPa North 4 mph /  6.4 km/h 4 mph /  6.4 km/h 83 % 0 in /  0.0 mm
06:02 53.2 °F /  11.8 °C 48.4 °F /  9.1 °C 30.3 in /  1024.3 hPa North 4 mph /  6.4 km/h 4 mph /  6.4 km/h 83 % 0 in /  0.0 mm
06:06 53.4 °F /  11.9 °C 48.4 °F /  9.1 °C 30.3 in /  1024.3 hPa North 5.8 mph /  9.3 km/h 5.8 mph /  9.3 km/h 83 % 0 in /  0.0 mm
06:11 53.2 °F /  11.8 °C 48.4 °F /  9.1 °C 30.3 in /  1024.3 hPa North 5.8 mph /  9.3 km/h 5.8 mph /  9.3 km/h 83 % 0 in /  0.0 mm
06:12 53.2 °F /  11.8 °C 48.4 °F /  9.1 °C 30.3 in /  1024.3 hPa North 4.6 mph /  7.4 km/h 4.6 mph /  7.4 km/h 83 % 0 in /  0.0 mm
06:13 53.2 °F /  11.8 °C 48.4 °F /  9.1 °C 30.3 in /  1024.3 hPa North 5 mph /  8.0 km/h 5 mph /  8.0 km/h 83 % 0 in /  0.0 mm
06:18 53.1 °F /  11.7 °C 47.7 °F /  8.7 °C 30.3 in /  1024.3 hPa North 4.6 mph /  7.4 km/h 4.6 mph /  7.4 km/h 82 % 0 in /  0.0 mm
06:19 53.1 °F /  11.7 °C 47.7 °F /  8.7 °C 30.3 in /  1024.3 hPa North 5.8 mph /  9.3 km/h 5.8 mph /  9.3 km/h 82 % 0 in /  0.0 mm
06:23 52.9 °F /  11.6 °C 47.8 °F /  8.8 °C 30.3 in /  1024.3 hPa North 5.8 mph /  9.3 km/h 5.8 mph /  9.3 km/h 83 % 0 in /  0.0 mm
06:25 52.7 °F /  11.5 °C 47.7 °F /  8.7 °C 30.3 in /  1024.3 hPa North 5.8 mph /  9.3 km/h 5.8 mph /  9.3 km/h 83 % 0 in /  0.0 mm
06:28 52.7 °F /  11.5 °C 47.7 °F /  8.7 °C 30.3 in /  1024.3 hPa North 5.8 mph /  9.3 km/h 5.8 mph /  9.3 km/h 83 % 0 in /  0.0 mm
06:33 52.7 °F /  11.5 °C 47.7 °F /  8.7 °C 30.3 in /  1024.3 hPa North 7 mph /  11.3 km/h 7 mph /  11.3 km/h 83 % 0 in /  0.0 mm
06:37 52.5 °F /  11.4 °C 47.7 °F /  8.7 °C 30.3 in /  1024.3 hPa NNW 8.1 mph /  13.0 km/h 8.1 mph /  13.0 km/h 83 % 0 in /  0.0 mm
06:38 52.5 °F /  11.4 °C 47.7 °F /  8.7 °C 30.3 in /  1024.3 hPa NNW 8.1 mph /  13.0 km/h 8.1 mph /  13.0 km/h 83 % 0 in /  0.0 mm
06:43 52.5 °F /  11.4 °C 47.7 °F /  8.7 °C 30.3 in /  1024.3 hPa NNW 3.5 mph /  5.6 km/h 3.5 mph /  5.6 km/h 83 % 0 in /  0.0 mm
06:44 52.5 °F /  11.4 °C 47.7 °F /  8.7 °C 30.3 in /  1024.3 hPa NNW 4 mph /  6.4 km/h 4 mph /  6.4 km/h 83 % 0 in /  0.0 mm
06:49 52.7 °F /  11.5 °C 47.7 °F /  8.7 °C 30.3 in /  1024.3 hPa North 4 mph /  6.4 km/h 4 mph /  6.4 km/h 83 % 0 in /  0.0 mm
06:54 52.7 °F /  11.5 °C 47.7 °F /  8.7 °C 30.3 in /  1024.3 hPa NNW 3.5 mph /  5.6 km/h 3.5 mph /  5.6 km/h 83 % 0 in /  0.0 mm
06:55 52.7 °F /  11.5 °C 47.7 °F /  8.7 °C 30.3 in /  1024.3 hPa North 3.5 mph /  5.6 km/h 3.5 mph /  5.6 km/h 83 % 0 in /  0.0 mm
07:00 52.5 °F /  11.4 °C 47.7 °F /  8.7 °C 30.3 in /  1024.3 hPa NNW 4.6 mph /  7.4 km/h 4.8 mph /  7.7 km/h 83 % 0 in /  0.0 mm
07:01 52.5 °F /  11.4 °C 47.7 °F /  8.7 °C 30.3 in /  1024.3 hPa North 5.8 mph /  9.3 km/h 5.8 mph /  9.3 km/h 83 % 0 in /  0.0 mm
07:06 52.7 °F /  11.5 °C 47.7 °F /  8.7 °C 30.3 in /  1024.6 hPa NNW 3.5 mph /  5.6 km/h 3.5 mph /  5.6 km/h 83 % 0 in /  0.0 mm
07:08 52.7 °F /  11.5 °C 47.7 °F /  8.7 °C 30.3 in /  1024.6 hPa North 5 mph /  8.0 km/h 5 mph /  8.0 km/h 83 % 0 in /  0.0 mm
07:11 52.9 °F /  11.6 °C 47.8 °F /  8.8 °C 30.3 in /  1024.6 hPa North 6 mph /  9.7 km/h 6 mph /  9.7 km/h 83 % 0 in /  0.0 mm
07:14 52.9 °F /  11.6 °C 47.8 °F /  8.8 °C 30.3 in /  1024.6 hPa North 8.1 mph /  13.0 km/h 8.1 mph /  13.0 km/h 83 % 0 in /  0.0 mm
07:17 52.7 °F /  11.5 °C 47.5 °F /  8.6 °C 30.3 in /  1024.3 hPa North 8.1 mph /  13.0 km/h 8.1 mph /  13.0 km/h 82 % 0 in /  0.0 mm
07:21 52.7 °F /  11.5 °C 47.5 °F /  8.6 °C 30.3 in /  1024.6 hPa North 6.9 mph /  11.1 km/h 6.9 mph /  11.1 km/h 82 % 0 in /  0.0 mm
07:26 52.5 °F /  11.4 °C 47.3 °F /  8.5 °C 30.3 in /  1024.6 hPa North 7 mph /  11.3 km/h 7 mph /  11.3 km/h 82 % 0 in /  0.0 mm
07:28 52.5 °F /  11.4 °C 47.3 °F /  8.5 °C 30.3 in /  1024.6 hPa North 6.9 mph /  11.1 km/h 6.9 mph /  11.1 km/h 82 % 0 in /  0.0 mm
07:33 52.5 °F /  11.4 °C 47.3 °F /  8.5 °C 30.3 in /  1024.6 hPa North 6.9 mph /  11.1 km/h 6.9 mph /  11.1 km/h 82 % 0 in /  0.0 mm
07:35 52.5 °F /  11.4 °C 47.3 °F /  8.5 °C 30.3 in /  1024.6 hPa North 6.9 mph /  11.1 km/h 6.9 mph /  11.1 km/h 82 % 0 in /  0.0 mm
07:37 52.7 °F /  11.5 °C 47.5 °F /  8.6 °C 30.3 in /  1024.6 hPa NNW 5.8 mph /  9.3 km/h 5.8 mph /  9.3 km/h 82 % 0 in /  0.0 mm
07:40 52.9 °F /  11.6 °C 47.5 °F /  8.6 °C 30.3 in /  1024.6 hPa NNW 5.8 mph /  9.3 km/h 5.8 mph /  9.3 km/h 82 % 0 in /  0.0 mm
07:45 53.1 °F /  11.7 °C 47.5 °F /  8.6 °C 30.3 in /  1024.6 hPa North 4.6 mph /  7.4 km/h 4.6 mph /  7.4 km/h 81 % 0 in /  0.0 mm
07:46 53.2 °F /  11.8 °C 47.5 °F /  8.6 °C 30.3 in /  1024.6 hPa NNW 5 mph /  8.0 km/h 5 mph /  8.0 km/h 81 % 0 in /  0.0 mm
07:48 53.2 °F /  11.8 °C 47.7 °F /  8.7 °C 30.3 in /  1024.6 hPa North 5.8 mph /  9.3 km/h 5.8 mph /  9.3 km/h 81 % 0 in /  0.0 mm
07:52 53.4 °F /  11.9 °C 47.5 °F /  8.6 °C 30.3 in /  1024.6 hPa North 6 mph /  9.7 km/h 6 mph /  9.7 km/h 80 % 0 in /  0.0 mm
07:56 53.2 °F /  11.8 °C 47.1 °F /  8.4 °C 30.3 in /  1024.6 hPa NNW 8.1 mph /  13.0 km/h 8.1 mph /  13.0 km/h 80 % 0 in /  0.0 mm
07:57 53.1 °F /  11.7 °C 47.1 °F /  8.4 °C 30.3 in /  1024.6 hPa NNW 6.9 mph /  11.1 km/h 6.9 mph /  11.1 km/h 80 % 0 in /  0.0 mm
08:02 53.1 °F /  11.7 °C 47.1 °F /  8.4 °C 30.3 in /  1024.6 hPa North 9.2 mph /  14.8 km/h 9.2 mph /  14.8 km/h 80 % 0 in /  0.0 mm
08:07 53.1 °F /  11.7 °C 47.1 °F /  8.4 °C 30.3 in /  1024.9 hPa NNW 5.8 mph /  9.3 km/h 5.8 mph /  9.3 km/h 80 % 0 in /  0.0 mm
08:12 53.1 °F /  11.7 °C 47.1 °F /  8.4 °C 30.3 in /  1024.6 hPa NNW 3.5 mph /  5.6 km/h 3.5 mph /  5.6 km/h 80 % 0 in /  0.0 mm
08:13 53.2 °F /  11.8 °C 47.1 °F /  8.4 °C 30.3 in /  1024.6 hPa NNW 4 mph /  6.4 km/h 4 mph /  6.4 km/h 80 % 0 in /  0.0 mm
08:16 53.2 °F /  11.8 °C 47.1 °F /  8.4 °C 30.3 in /  1024.6 hPa North 5 mph /  8.0 km/h 5 mph /  8.0 km/h 80 % 0 in /  0.0 mm
08:21 53.2 °F /  11.8 °C 47.1 °F /  8.4 °C 30.3 in /  1024.6 hPa NNW 4 mph /  6.4 km/h 4 mph /  6.4 km/h 80 % 0 in /  0.0 mm
08:23 53.2 °F /  11.8 °C 47.7 °F /  8.7 °C 30.3 in /  1024.6 hPa North 4 mph /  6.4 km/h 4 mph /  6.4 km/h 81 % 0 in /  0.0 mm
08:28 53.2 °F /  11.8 °C 47.7 °F /  8.7 °C 30.3 in /  1024.9 hPa NNW 3.5 mph /  5.6 km/h 3.5 mph /  5.6 km/h 81 % 0 in /  0.0 mm
08:29 53.2 °F /  11.8 °C 47.7 °F /  8.7 °C 30.3 in /  1024.9 hPa NNW 3.5 mph /  5.6 km/h 3.5 mph /  5.6 km/h 81 % 0 in /  0.0 mm
08:34 53.6 °F /  12.0 °C 47.8 °F /  8.8 °C 30.3 in /  1024.9 hPa North 4.6 mph /  7.4 km/h 4.6 mph /  7.4 km/h 81 % 0 in /  0.0 mm
08:36 53.8 °F /  12.1 °C 48 °F /  8.9 °C 30.3 in /  1024.9 hPa North 4.6 mph /  7.4 km/h 4.6 mph /  7.4 km/h 81 % 0 in /  0.0 mm
08:40 53.8 °F /  12.1 °C 47.7 °F /  8.7 °C 30.3 in /  1024.9 hPa North 5.8 mph /  9.3 km/h 5.8 mph /  9.3 km/h 80 % 0 in /  0.0 mm
08:43 53.8 °F /  12.1 °C 47.7 °F /  8.7 °C 30.3 in /  1024.9 hPa NNW 5.8 mph /  9.3 km/h 5.8 mph /  9.3 km/h 80 % 0 in /  0.0 mm
08:45 53.8 °F /  12.1 °C 47.7 °F /  8.7 °C 30.3 in /  1024.9 hPa NNW 4.6 mph /  7.4 km/h 4.6 mph /  7.4 km/h 80 % 0 in /  0.0 mm
08:51 53.8 °F /  12.1 °C 47.7 °F /  8.7 °C 30.3 in /  1024.9 hPa NNW 3.5 mph /  5.6 km/h 3.5 mph /  5.6 km/h 80 % 0 in /  0.0 mm
08:52 53.8 °F /  12.1 °C 47.8 °F /  8.8 °C 30.3 in /  1024.9 hPa NNW 3.5 mph /  5.6 km/h 3.5 mph /  5.6 km/h 80 % 0 in /  0.0 mm
08:57 54.1 °F /  12.3 °C 48 °F /  8.9 °C 30.3 in /  1024.9 hPa NW 6.9 mph /  11.1 km/h 6.9 mph /  11.1 km/h 80 % 0 in /  0.0 mm
09:02 54.3 °F /  12.4 °C 48 °F /  8.9 °C 30.3 in /  1025.3 hPa NW 3.5 mph /  5.6 km/h 3.5 mph /  5.6 km/h 79 % 0 in /  0.0 mm
09:03 54.5 °F /  12.5 °C 48 °F /  8.9 °C 30.3 in /  1025.3 hPa NW 4.6 mph /  7.4 km/h 4.6 mph /  7.4 km/h 79 % 0 in /  0.0 mm
09:08 54.7 °F /  12.6 °C 48.2 °F /  9.0 °C 30.3 in /  1025.3 hPa NNW 4 mph /  6.4 km/h 4 mph /  6.4 km/h 79 % 0 in /  0.0 mm
09:13 54.3 °F /  12.4 °C 47.7 °F /  8.7 °C 30.3 in /  1025.3 hPa North 6 mph /  9.7 km/h 6 mph /  9.7 km/h 78 % 0 in /  0.0 mm
09:14 54.3 °F /  12.4 °C 47.3 °F /  8.5 °C 30.3 in /  1025.3 hPa North 6 mph /  9.7 km/h 6 mph /  9.7 km/h 77 % 0 in /  0.0 mm
09:19 54 °F /  12.2 °C 46.9 °F /  8.3 °C 30.3 in /  1025.3 hPa NNW 5.8 mph /  9.3 km/h 5.8 mph /  9.3 km/h 77 % 0 in /  0.0 mm
09:24 53.8 °F /  12.1 °C 46.8 °F /  8.2 °C 30.3 in /  1025.3 hPa NNW 6 mph /  9.7 km/h 6 mph /  9.7 km/h 77 % 0 in /  0.0 mm
09:28 53.8 °F /  12.1 °C 47.1 °F /  8.4 °C 30.3 in /  1025.3 hPa NNW 4.6 mph /  7.4 km/h 4.6 mph /  7.4 km/h 78 % 0 in /  0.0 mm
09:30 54 °F /  12.2 °C 47.1 °F /  8.4 °C 30.3 in /  1025.3 hPa North 5 mph /  8.0 km/h 5 mph /  8.0 km/h 78 % 0 in /  0.0 mm
09:35 54.1 °F /  12.3 °C 47.5 °F /  8.6 °C 30.3 in /  1025.3 hPa North 4 mph /  6.4 km/h 4 mph /  6.4 km/h 78 % 0 in /  0.0 mm
09:36 54.1 °F /  12.3 °C 47.5 °F /  8.6 °C 30.3 in /  1025.3 hPa North 5 mph /  8.0 km/h 5 mph /  8.0 km/h 78 % 0 in /  0.0 mm
09:40 54.1 °F /  12.3 °C 47.1 °F /  8.4 °C 30.3 in /  1025.3 hPa North 5 mph /  8.0 km/h 7 mph /  11.3 km/h 77 % 0 in /  0.0 mm
09:41 54.1 °F /  12.3 °C 47.1 °F /  8.4 °C 30.3 in /  1025.3 hPa North 5.8 mph /  9.3 km/h 5.8 mph /  9.3 km/h 77 % 0 in /  0.0 mm
09:44 54.1 °F /  12.3 °C 47.1 °F /  8.4 °C 30.3 in /  1025.3 hPa North 5.8 mph /  9.3 km/h 5.8 mph /  9.3 km/h 77 % 0 in /  0.0 mm
09:47 54.1 °F /  12.3 °C 47.1 °F /  8.4 °C 30.3 in /  1025.3 hPa North 4.6 mph /  7.4 km/h 4.6 mph /  7.4 km/h 77 % 0 in /  0.0 mm
09:51 54.1 °F /  12.3 °C 47.1 °F /  8.4 °C 30.3 in /  1025.3 hPa North 5.8 mph /  9.3 km/h 5.8 mph /  9.3 km/h 77 % 0 in /  0.0 mm
09:52 54.3 °F /  12.4 °C 47.1 °F /  8.4 °C 30.3 in /  1025.6 hPa North 5.8 mph /  9.3 km/h 5.8 mph /  9.3 km/h 77 % 0 in /  0.0 mm
09:57 54.3 °F /  12.4 °C 47.3 °F /  8.5 °C 30.3 in /  1025.6 hPa North 3.5 mph /  5.6 km/h 3.5 mph /  5.6 km/h 77 % 0 in /  0.0 mm
09:58 54.3 °F /  12.4 °C 47.3 °F /  8.5 °C 30.3 in /  1025.6 hPa North 3.5 mph /  5.6 km/h 3.5 mph /  5.6 km/h 77 % 0 in /  0.0 mm
10:03 54.7 °F /  12.6 °C 47.5 °F /  8.6 °C 30.3 in /  1025.6 hPa North 3.5 mph /  5.6 km/h 3.5 mph /  5.6 km/h 77 % 0 in /  0.0 mm
10:04 54.7 °F /  12.6 °C 47.7 °F /  8.7 °C 30.3 in /  1025.6 hPa North 3.5 mph /  5.6 km/h 3.5 mph /  5.6 km/h 77 % 0 in /  0.0 mm
10:09 54.9 °F /  12.7 °C 47.5 °F /  8.6 °C 30.3 in /  1025.6 hPa North 4.6 mph /  7.4 km/h 4.6 mph /  7.4 km/h 76 % 0 in /  0.0 mm
10:10 55 °F /  12.8 °C 47.7 °F /  8.7 °C 30.3 in /  1025.6 hPa North 5 mph /  8.0 km/h 5 mph /  8.0 km/h 76 % 0 in /  0.0 mm
10:14 55 °F /  12.8 °C 47.7 °F /  8.7 °C 30.3 in /  1025.6 hPa North 5.8 mph /  9.3 km/h 5.8 mph /  9.3 km/h 76 % 0 in /  0.0 mm
10:19 54.9 °F /  12.7 °C 47.5 °F /  8.6 °C 30.3 in /  1025.6 hPa NNE 5 mph /  8.0 km/h 5 mph /  8.0 km/h 76 % 0 in /  0.0 mm
10:23 55 °F /  12.8 °C 47.7 °F /  8.7 °C 30.3 in /  1026.0 hPa NNE 6.9 mph /  11.1 km/h 6.9 mph /  11.1 km/h 76 % 0 in /  0.0 mm
10:27 55.6 °F /  13.1 °C 48.4 °F /  9.1 °C 30.3 in /  1026.0 hPa NNE 6.9 mph /  11.1 km/h 6.9 mph /  11.1 km/h 77 % 0 in /  0.0 mm
10:32 55.9 °F /  13.3 °C 48.4 °F /  9.1 °C 30.3 in /  1026.0 hPa North 8.1 mph /  13.0 km/h 8.1 mph /  13.0 km/h 76 % 0 in /  0.0 mm
10:34 55.9 °F /  13.3 °C 48.6 °F /  9.2 °C 30.3 in /  1026.0 hPa NNE 5.8 mph /  9.3 km/h 5.8 mph /  9.3 km/h 76 % 0 in /  0.0 mm
10:39 56.1 °F /  13.4 °C 48.7 °F /  9.3 °C 30.3 in /  1026.0 hPa North 4.6 mph /  7.4 km/h 4.6 mph /  7.4 km/h 76 % 0 in /  0.0 mm
10:40 56.1 °F /  13.4 °C 48.7 °F /  9.3 °C 30.3 in /  1026.0 hPa North 5 mph /  8.0 km/h 5 mph /  8.0 km/h 76 % 0 in /  0.0 mm
10:41 56.1 °F /  13.4 °C 48.7 °F /  9.3 °C 30.3 in /  1026.0 hPa North 4.6 mph /  7.4 km/h 4.6 mph /  7.4 km/h 76 % 0 in /  0.0 mm
10:46 56.5 °F /  13.6 °C 48.9 °F /  9.4 °C 30.3 in /  1026.0 hPa NNE 6.9 mph /  11.1 km/h 6.9 mph /  11.1 km/h 76 % 0 in /  0.0 mm
10:48 56.5 °F /  13.6 °C 48.9 °F /  9.4 °C 30.3 in /  1026.0 hPa NNE 4.6 mph /  7.4 km/h 4.6 mph /  7.4 km/h 76 % 0 in /  0.0 mm
10:51 56.7 °F /  13.7 °C 49.1 °F /  9.5 °C 30.3 in /  1026.0 hPa North 3.5 mph /  5.6 km/h 3.5 mph /  5.6 km/h 76 % 0 in /  0.0 mm
10:55 56.8 °F /  13.8 °C 49.3 °F /  9.6 °C 30.3 in /  1026.3 hPa NNW 5.8 mph /  9.3 km/h 5.8 mph /  9.3 km/h 76 % 0 in /  0.0 mm
10:57 56.8 °F /  13.8 °C 49.3 °F /  9.6 °C 30.3 in /  1026.3 hPa NNW 5.8 mph /  9.3 km/h 5.8 mph /  9.3 km/h 76 % 0 in /  0.0 mm
11:02 57 °F /  13.9 °C 49.6 °F /  9.8 °C 30.3 in /  1026.0 hPa North 6.9 mph /  11.1 km/h 6.9 mph /  11.1 km/h 76 % 0 in /  0.0 mm
11:07 57.6 °F /  14.2 °C 50 °F /  10.0 °C 30.3 in /  1026.3 hPa North 2.3 mph /  3.7 km/h 2.3 mph /  3.7 km/h 76 % 0 in /  0.0 mm
11:08 57.6 °F /  14.2 °C 50 °F /  10.0 °C 30.3 in /  1026.3 hPa North 3.5 mph /  5.6 km/h 3.5 mph /  5.6 km/h 76 % 0 in /  0.0 mm
11:13 57.9 °F /  14.4 °C 50.4 °F /  10.2 °C 30.3 in /  1026.3 hPa North 3.5 mph /  5.6 km/h 3.5 mph /  5.6 km/h 76 % 0 in /  0.0 mm
11:14 57.9 °F /  14.4 °C 50.5 °F /  10.3 °C 30.3 in /  1026.3 hPa North 3.5 mph /  5.6 km/h 3.5 mph /  5.6 km/h 76 % 0 in /  0.0 mm
11:19 58.3 °F /  14.6 °C 50 °F /  10.0 °C 30.3 in /  1026.3 hPa North 4.6 mph /  7.4 km/h 4.6 mph /  7.4 km/h 74 % 0 in /  0.0 mm
11:20 58.3 °F /  14.6 °C 50 °F /  10.0 °C 30.3 in /  1026.3 hPa North 4.6 mph /  7.4 km/h 4.6 mph /  7.4 km/h 74 % 0 in /  0.0 mm
11:25 58.6 °F /  14.8 °C 50 °F /  10.0 °C 30.3 in /  1026.3 hPa North 3.5 mph /  5.6 km/h 3.5 mph /  5.6 km/h 73 % 0 in /  0.0 mm
11:26 58.6 °F /  14.8 °C 50 °F /  10.0 °C 30.3 in /  1026.3 hPa North 3.5 mph /  5.6 km/h 3.5 mph /  5.6 km/h 73 % 0 in /  0.0 mm
11:27 58.6 °F /  14.8 °C 50.2 °F /  10.1 °C 30.3 in /  1026.3 hPa NNE 3.5 mph /  5.6 km/h 3.5 mph /  5.6 km/h 73 % 0 in /  0.0 mm
11:32 59.2 °F /  15.1 °C 50.5 °F /  10.3 °C 30.3 in /  1026.0 hPa NE 3.5 mph /  5.6 km/h 3.5 mph /  5.6 km/h 73 % 0 in /  0.0 mm
11:34 59.2 °F /  15.1 °C 50.5 °F /  10.3 °C 30.3 in /  1026.0 hPa NE 3.5 mph /  5.6 km/h 3.5 mph /  5.6 km/h 73 % 0 in /  0.0 mm
11:37 59.4 °F /  15.2 °C 51.1 °F /  10.6 °C 30.3 in /  1026.3 hPa NE 3.5 mph /  5.6 km/h 3.5 mph /  5.6 km/h 74 % 0 in /  0.0 mm
11:39 59.5 °F /  15.3 °C 51.6 °F /  10.9 °C 30.3 in /  1026.3 hPa NE 4 mph /  6.4 km/h 4 mph /  6.4 km/h 75 % 0 in /  0.0 mm
11:43 59.7 °F /  15.4 °C 52.2 °F /  11.2 °C 30.3 in /  1026.3 hPa NE 5.8 mph /  9.3 km/h 5.8 mph /  9.3 km/h 76 % 0 in /  0.0 mm
11:44 59.9 °F /  15.5 °C 52.3 °F /  11.3 °C 30.3 in /  1026.3 hPa NE 5.8 mph /  9.3 km/h 5.8 mph /  9.3 km/h 76 % 0 in /  0.0 mm
11:49 60.3 °F /  15.7 °C 53.1 °F /  11.7 °C 30.3 in /  1026.3 hPa NE 6 mph /  9.7 km/h 6 mph /  9.7 km/h 77 % 0 in /  0.0 mm
11:54 60.6 °F /  15.9 °C 53.1 °F /  11.7 °C 30.3 in /  1026.3 hPa NNE 3.5 mph /  5.6 km/h 3.5 mph /  5.6 km/h 76 % 0 in /  0.0 mm
11:59 61 °F /  16.1 °C 53.2 °F /  11.8 °C 30.3 in /  1026.3 hPa NNE 1.2 mph /  1.9 km/h 1.2 mph /  1.9 km/h 76 % 0 in /  0.0 mm
12:04 61.2 °F /  16.2 °C 53.6 °F /  12.0 °C 30.3 in /  1026.3 hPa NNE 2.3 mph /  3.7 km/h 2.3 mph /  3.7 km/h 76 % 0 in /  0.0 mm
12:05 61.3 °F /  16.3 °C 53.8 °F /  12.1 °C 30.3 in /  1026.3 hPa WSW 4 mph /  6.4 km/h 4 mph /  6.4 km/h 76 % 0 in /  0.0 mm
12:10 61.9 °F /  16.6 °C 54.5 °F /  12.5 °C 30.3 in /  1026.0 hPa NE 7 mph /  11.3 km/h 7 mph /  11.3 km/h 77 % 0 in /  0.0 mm
12:14 62.1 °F /  16.7 °C 54.3 °F /  12.4 °C 30.3 in /  1026.3 hPa West 5 mph /  8.0 km/h 5 mph /  8.0 km/h 76 % 0 in /  0.0 mm
12:15 62.1 °F /  16.7 °C 54.3 °F /  12.4 °C 30.3 in /  1026.3 hPa West 2 mph /  3.2 km/h 11 mph /  17.7 km/h 76 % 0 in /  0.0 mm
12:20 62.2 °F /  16.8 °C 54.9 °F /  12.7 °C 30.3 in /  1026.3 hPa WNW 8.1 mph /  13.0 km/h 8.1 mph /  13.0 km/h 77 % 0 in /  0.0 mm
12:21 62.2 °F /  16.8 °C 54.9 °F /  12.7 °C 30.3 in /  1026.3 hPa West 8.1 mph /  13.0 km/h 8.1 mph /  13.0 km/h 77 % 0 in /  0.0 mm
12:26 62.4 °F /  16.9 °C 54.7 °F /  12.6 °C 30.3 in /  1026.0 hPa WNW 5.8 mph /  9.3 km/h 5.8 mph /  9.3 km/h 76 % 0 in /  0.0 mm
12:28 62.4 °F /  16.9 °C 54.9 °F /  12.7 °C 30.3 in /  1026.0 hPa West 5.8 mph /  9.3 km/h 5.8 mph /  9.3 km/h 76 % 0 in /  0.0 mm
12:31 62.8 °F /  17.1 °C 54.7 °F /  12.6 °C 30.3 in /  1026.3 hPa WNW 4.6 mph /  7.4 km/h 4.6 mph /  7.4 km/h 75 % 0 in /  0.0 mm
12:36 63.1 °F /  17.3 °C 55 °F /  12.8 °C 30.3 in /  1026.3 hPa WSW 6.9 mph /  11.1 km/h 6.9 mph /  11.1 km/h 75 % 0 in /  0.0 mm
12:38 63.1 °F /  17.3 °C 54.9 °F /  12.7 °C 30.3 in /  1026.3 hPa West 5.8 mph /  9.3 km/h 5.8 mph /  9.3 km/h 74 % 0 in /  0.0 mm
12:42 63.1 °F /  17.3 °C 54.9 °F /  12.7 °C 30.3 in /  1026.0 hPa WSW 12.7 mph /  20.4 km/h 12.7 mph /  20.4 km/h 74 % 0 in /  0.0 mm
12:45 63.1 °F /  17.3 °C 55 °F /  12.8 °C 30.3 in /  1026.0 hPa WSW 16.1 mph /  25.9 km/h 16.1 mph /  25.9 km/h 75 % 0 in /  0.0 mm
12:48 63 °F /  17.2 °C 55.2 °F /  12.9 °C 30.3 in /  1026.0 hPa West 11.5 mph /  18.5 km/h 11.5 mph /  18.5 km/h 76 % 0 in /  0.0 mm
12:53 62.8 °F /  17.1 °C 54.3 °F /  12.4 °C 30.3 in /  1025.6 hPa WSW 16.1 mph /  25.9 km/h 16.1 mph /  25.9 km/h 74 % 0 in /  0.0 mm
12:54 62.8 °F /  17.1 °C 54.3 °F /  12.4 °C 30.3 in /  1025.6 hPa WSW 16.1 mph /  25.9 km/h 16.1 mph /  25.9 km/h 74 % 0 in /  0.0 mm
12:59 63 °F /  17.2 °C 53.8 °F /  12.1 °C 30.3 in /  1025.6 hPa WSW 16.1 mph /  25.9 km/h 16.1 mph /  25.9 km/h 72 % 0 in /  0.0 mm
13:04 63.3 °F /  17.4 °C 53.4 °F /  11.9 °C 30.3 in /  1025.6 hPa West 18.4 mph /  29.6 km/h 18.4 mph /  29.6 km/h 70 % 0 in /  0.0 mm
13:07 63.7 °F /  17.6 °C 53.2 °F /  11.8 °C 30.3 in /  1025.3 hPa WSW 19.6 mph /  31.5 km/h 19.6 mph /  31.5 km/h 69 % 0 in /  0.0 mm
13:12 63.7 °F /  17.6 °C 53.6 °F /  12.0 °C 30.3 in /  1025.3 hPa SW 19.6 mph /  31.5 km/h 19.6 mph /  31.5 km/h 70 % 0 in /  0.0 mm
13:13 63.7 °F /  17.6 °C 53.6 °F /  12.0 °C 30.3 in /  1025.3 hPa WSW 18.4 mph /  29.6 km/h 18.4 mph /  29.6 km/h 70 % 0 in /  0.0 mm
13:14 63.7 °F /  17.6 °C 54 °F /  12.2 °C 30.3 in /  1025.3 hPa WSW 17.3 mph /  27.8 km/h 17.3 mph /  27.8 km/h 71 % 0 in /  0.0 mm
13:19 63.3 °F /  17.4 °C 53.8 °F /  12.1 °C 30.3 in /  1025.3 hPa WSW 15 mph /  24.1 km/h 15 mph /  24.1 km/h 71 % 0 in /  0.0 mm
13:20 63.3 °F /  17.4 °C 53.4 °F /  11.9 °C 30.3 in /  1025.3 hPa WSW 15 mph /  24.1 km/h 15 mph /  24.1 km/h 70 % 0 in /  0.0 mm
13:25 64 °F /  17.8 °C 52.3 °F /  11.3 °C 30.3 in /  1025.3 hPa West 19.6 mph /  31.5 km/h 19.6 mph /  31.5 km/h 66 % 0 in /  0.0 mm
13:30 64.9 °F /  18.3 °C 52.2 °F /  11.2 °C 30.3 in /  1025.3 hPa West 17.3 mph /  27.8 km/h 17.3 mph /  27.8 km/h 63 % 0 in /  0.0 mm
13:31 65.1 °F /  18.4 °C 52.2 °F /  11.2 °C 30.3 in /  1024.9 hPa West 16.1 mph /  25.9 km/h 16.1 mph /  25.9 km/h 63 % 0 in /  0.0 mm
13:33 65.3 °F /  18.5 °C 52.3 °F /  11.3 °C 30.3 in /  1025.3 hPa WSW 11.5 mph /  18.5 km/h 11.5 mph /  18.5 km/h 63 % 0 in /  0.0 mm
13:37 65.7 °F /  18.7 °C 51.3 °F /  10.7 °C 30.3 in /  1024.9 hPa West 13.8 mph /  22.2 km/h 13.8 mph /  22.2 km/h 60 % 0 in /  0.0 mm
13:39 65.8 °F /  18.8 °C 51.4 °F /  10.8 °C 30.3 in /  1024.9 hPa West 17.3 mph /  27.8 km/h 17.3 mph /  27.8 km/h 60 % 0 in /  0.0 mm
13:43 66.2 °F /  19.0 °C 51.4 °F /  10.8 °C 30.3 in /  1024.9 hPa WNW 16.1 mph /  25.9 km/h 16.1 mph /  25.9 km/h 59 % 0 in /  0.0 mm
13:45 66.2 °F /  19.0 °C 51.4 °F /  10.8 °C 30.3 in /  1024.9 hPa WNW 16.1 mph /  25.9 km/h 16.1 mph /  25.9 km/h 59 % 0 in /  0.0 mm
13:50 66.4 °F /  19.1 °C 51.3 °F /  10.7 °C 30.3 in /  1024.9 hPa West 13.8 mph /  22.2 km/h 13.8 mph /  22.2 km/h 58 % 0 in /  0.0 mm
13:55 66.6 °F /  19.2 °C 50.7 °F /  10.4 °C 30.3 in /  1024.9 hPa WNW 18.4 mph /  29.6 km/h 18.4 mph /  29.6 km/h 57 % 0 in /  0.0 mm
13:56 66.6 °F /  19.2 °C 50.7 °F /  10.4 °C 30.3 in /  1024.9 hPa NW 16.1 mph /  25.9 km/h 16.1 mph /  25.9 km/h 57 % 0 in /  0.0 mm
14:01 66.6 °F /  19.2 °C 50.9 °F /  10.5 °C 30.3 in /  1024.9 hPa NW 6.9 mph /  11.1 km/h 6.9 mph /  11.1 km/h 57 % 0 in /  0.0 mm
14:02 66.6 °F /  19.2 °C 50.9 °F /  10.5 °C 30.3 in /  1024.9 hPa NW 6.9 mph /  11.1 km/h 6.9 mph /  11.1 km/h 57 % 0 in /  0.0 mm
14:07 66.7 °F /  19.3 °C 50.5 °F /  10.3 °C 30.3 in /  1024.9 hPa WNW 16.1 mph /  25.9 km/h 16.1 mph /  25.9 km/h 56 % 0 in /  0.0 mm
14:08 66.9 °F /  19.4 °C 50.7 °F /  10.4 °C 30.3 in /  1024.9 hPa West 11.5 mph /  18.5 km/h 11.5 mph /  18.5 km/h 56 % 0 in /  0.0 mm
14:14 66.9 °F /  19.4 °C 50.4 °F /  10.2 °C 30.3 in /  1024.9 hPa West 16.1 mph /  25.9 km/h 16.1 mph /  25.9 km/h 55 % 0 in /  0.0 mm
14:18 66.9 °F /  19.4 °C 50.4 °F /  10.2 °C 30.3 in /  1024.9 hPa West 16 mph /  25.7 km/h 16 mph /  25.7 km/h 55 % 0 in /  0.0 mm
14:23 66.9 °F /  19.4 °C 50.4 °F /  10.2 °C 30.3 in /  1024.9 hPa West 18.4 mph /  29.6 km/h 18.4 mph /  29.6 km/h 55 % 0 in /  0.0 mm
14:24 66.9 °F /  19.4 °C 49.8 °F /  9.9 °C 30.3 in /  1024.9 hPa West 18.4 mph /  29.6 km/h 18.4 mph /  29.6 km/h 54 % 0 in /  0.0 mm
14:27 66.9 °F /  19.4 °C 50.4 °F /  10.2 °C 30.3 in /  1024.9 hPa West 19.6 mph /  31.5 km/h 19.6 mph /  31.5 km/h 55 % 0 in /  0.0 mm
14:30 66.9 °F /  19.4 °C 50.4 °F /  10.2 °C 30.3 in /  1025.3 hPa West 15 mph /  24.1 km/h 15 mph /  24.1 km/h 55 % 0 in /  0.0 mm
14:35 66.9 °F /  19.4 °C 49.8 °F /  9.9 °C 30.3 in /  1024.9 hPa WNW 10.4 mph /  16.7 km/h 10.4 mph /  16.7 km/h 54 % 0 in /  0.0 mm
14:38 66.9 °F /  19.4 °C 49.8 °F /  9.9 °C 30.3 in /  1024.9 hPa WNW 11.5 mph /  18.5 km/h 11.5 mph /  18.5 km/h 54 % 0 in /  0.0 mm
14:40 67.1 °F /  19.5 °C 49.8 °F /  9.9 °C 30.3 in /  1024.9 hPa West 13.8 mph /  22.2 km/h 13.8 mph /  22.2 km/h 54 % 0 in /  0.0 mm
14:45 66.9 °F /  19.4 °C 50.4 °F /  10.2 °C 30.3 in /  1025.3 hPa West 12 mph /  19.3 km/h 12 mph /  19.3 km/h 55 % 0 in /  0.0 mm
14:50 66.9 °F /  19.4 °C 50.2 °F /  10.1 °C 30.3 in /  1024.9 hPa West 7 mph /  11.3 km/h 7 mph /  11.3 km/h 55 % 0 in /  0.0 mm
14:55 66.9 °F /  19.4 °C 50.4 °F /  10.2 °C 30.3 in /  1024.9 hPa West 12.7 mph /  20.4 km/h 12.7 mph /  20.4 km/h 55 % 0 in /  0.0 mm
14:56 66.9 °F /  19.4 °C 50.4 °F /  10.2 °C 30.3 in /  1024.9 hPa WNW 12.7 mph /  20.4 km/h 12.7 mph /  20.4 km/h 55 % 0 in /  0.0 mm
15:01 66.9 °F /  19.4 °C 50.2 °F /  10.1 °C 30.3 in /  1024.9 hPa WNW 11.5 mph /  18.5 km/h 11.5 mph /  18.5 km/h 55 % 0 in /  0.0 mm
15:07 66.9 °F /  19.4 °C 50.2 °F /  10.1 °C 30.3 in /  1024.9 hPa West 9.2 mph /  14.8 km/h 9.2 mph /  14.8 km/h 55 % 0 in /  0.0 mm
15:11 66.9 °F /  19.4 °C 50.7 °F /  10.4 °C 30.3 in /  1025.3 hPa West 7 mph /  11.3 km/h 7 mph /  11.3 km/h 56 % 0 in /  0.0 mm
15:12 66.9 °F /  19.4 °C 50.7 °F /  10.4 °C 30.3 in /  1025.3 hPa West 9 mph /  14.5 km/h 9 mph /  14.5 km/h 56 % 0 in /  0.0 mm
15:17 66.7 °F /  19.3 °C 51.1 °F /  10.6 °C 30.3 in /  1025.3 hPa WSW 8.1 mph /  13.0 km/h 8.1 mph /  13.0 km/h 57 % 0 in /  0.0 mm
15:21 66.2 °F /  19.0 °C 52 °F /  11.1 °C 30.3 in /  1025.3 hPa West 11.5 mph /  18.5 km/h 11.5 mph /  18.5 km/h 60 % 0 in /  0.0 mm
15:22 66.2 °F /  19.0 °C 52 °F /  11.1 °C 30.3 in /  1025.3 hPa WSW 11.5 mph /  18.5 km/h 11.5 mph /  18.5 km/h 60 % 0 in /  0.0 mm
15:27 65.8 °F /  18.8 °C 51.6 °F /  10.9 °C 30.3 in /  1024.9 hPa WSW 10.4 mph /  16.7 km/h 10.4 mph /  16.7 km/h 60 % 0 in /  0.0 mm
15:29 65.8 °F /  18.8 °C 52.2 °F /  11.2 °C 30.3 in /  1024.9 hPa West 10.4 mph /  16.7 km/h 10.4 mph /  16.7 km/h 61 % 0 in /  0.0 mm
15:34 65.8 °F /  18.8 °C 51.1 °F /  10.6 °C 30.3 in /  1024.9 hPa WNW 4 mph /  6.4 km/h 4.2 mph /  6.8 km/h 59 % 0 in /  0.0 mm
15:35 65.8 °F /  18.8 °C 50.7 °F /  10.4 °C 30.3 in /  1024.9 hPa WNW 6.9 mph /  11.1 km/h 6.9 mph /  11.1 km/h 58 % 0 in /  0.0 mm
15:40 66.4 °F /  19.1 °C 50.5 °F /  10.3 °C 30.3 in /  1024.9 hPa WNW 8.1 mph /  13.0 km/h 8.1 mph /  13.0 km/h 57 % 0 in /  0.0 mm
15:41 66.4 °F /  19.1 °C 50.5 °F /  10.3 °C 30.3 in /  1024.9 hPa WNW 8.1 mph /  13.0 km/h 8.1 mph /  13.0 km/h 57 % 0 in /  0.0 mm
15:42 66.6 °F /  19.2 °C 50.4 °F /  10.2 °C 30.3 in /  1024.9 hPa WNW 8.1 mph /  13.0 km/h 8.1 mph /  13.0 km/h 56 % 0 in /  0.0 mm
15:47 66.7 °F /  19.3 °C 50.2 °F /  10.1 °C 30.3 in /  1024.9 hPa NW 8.1 mph /  13.0 km/h 8.1 mph /  13.0 km/h 55 % 0 in /  0.0 mm
15:49 66.9 °F /  19.4 °C 50.2 °F /  10.1 °C 30.3 in /  1024.9 hPa NW 9.2 mph /  14.8 km/h 9.2 mph /  14.8 km/h 55 % 0 in /  0.0 mm
15:50 66.9 °F /  19.4 °C 50.2 °F /  10.1 °C 30.3 in /  1024.9 hPa WNW 9.2 mph /  14.8 km/h 9.2 mph /  14.8 km/h 55 % 0 in /  0.0 mm
15:55 67.1 °F /  19.5 °C 50.4 °F /  10.2 °C 30.3 in /  1024.9 hPa West 9.2 mph /  14.8 km/h 9.2 mph /  14.8 km/h 55 % 0 in /  0.0 mm
15:56 67.1 °F /  19.5 °C 50.4 °F /  10.2 °C 30.3 in /  1024.9 hPa West 9.2 mph /  14.8 km/h 9.2 mph /  14.8 km/h 55 % 0 in /  0.0 mm
16:00 67.1 °F /  19.5 °C 50.9 °F /  10.5 °C 30.3 in /  1024.9 hPa West 10.4 mph /  16.7 km/h 10.4 mph /  16.7 km/h 56 % 0 in /  0.0 mm
16:01 67.1 °F /  19.5 °C 50.9 °F /  10.5 °C 30.3 in /  1024.9 hPa West 10.4 mph /  16.7 km/h 10.4 mph /  16.7 km/h 56 % 0 in /  0.0 mm
16:02 67.1 °F /  19.5 °C 50.9 °F /  10.5 °C 30.3 in /  1024.9 hPa WNW 8.1 mph /  13.0 km/h 8.1 mph /  13.0 km/h 56 % 0 in /  0.0 mm
16:07 66.9 °F /  19.4 °C 50.7 °F /  10.4 °C 30.3 in /  1024.9 hPa West 7 mph /  11.3 km/h 7 mph /  11.3 km/h 56 % 0 in /  0.0 mm
16:08 66.9 °F /  19.4 °C 50.7 °F /  10.4 °C 30.3 in /  1025.3 hPa West 8 mph /  12.9 km/h 8 mph /  12.9 km/h 56 % 0 in /  0.0 mm
16:09 66.9 °F /  19.4 °C 50.7 °F /  10.4 °C 30.3 in /  1025.3 hPa WNW 9.2 mph /  14.8 km/h 9.2 mph /  14.8 km/h 56 % 0 in /  0.0 mm
16:13 66.9 °F /  19.4 °C 50.7 °F /  10.4 °C 30.3 in /  1025.3 hPa NW 8 mph /  12.9 km/h 8 mph /  12.9 km/h 56 % 0 in /  0.0 mm
16:18 66.9 °F /  19.4 °C 50.4 °F /  10.2 °C 30.3 in /  1025.3 hPa West 12.7 mph /  20.4 km/h 12.7 mph /  20.4 km/h 55 % 0 in /  0.0 mm
16:20 66.9 °F /  19.4 °C 50.4 °F /  10.2 °C 30.3 in /  1025.3 hPa West 12 mph /  19.3 km/h 12 mph /  19.3 km/h 55 % 0 in /  0.0 mm
16:24 67.1 °F /  19.5 °C 50.9 °F /  10.5 °C 30.3 in /  1025.3 hPa West 15 mph /  24.1 km/h 15 mph /  24.1 km/h 56 % 0 in /  0.0 mm
16:26 67.3 °F /  19.6 °C 50.5 °F /  10.3 °C 30.3 in /  1025.3 hPa WNW 15 mph /  24.1 km/h 15 mph /  24.1 km/h 55 % 0 in /  0.0 mm
16:29 67.3 °F /  19.6 °C 51.1 °F /  10.6 °C 30.3 in /  1025.3 hPa West 12.7 mph /  20.4 km/h 12.7 mph /  20.4 km/h 56 % 0 in /  0.0 mm
16:34 67.5 °F /  19.7 °C 51.3 °F /  10.7 °C 30.3 in /  1025.3 hPa West 18.4 mph /  29.6 km/h 18.4 mph /  29.6 km/h 56 % 0 in /  0.0 mm
16:39 67.5 °F /  19.7 °C 51.6 °F /  10.9 °C 30.3 in /  1025.3 hPa West 13.8 mph /  22.2 km/h 13.8 mph /  22.2 km/h 57 % 0 in /  0.0 mm
16:40 67.6 °F /  19.8 °C 51.8 °F /  11.0 °C 30.3 in /  1025.3 hPa WNW 13.8 mph /  22.2 km/h 13.8 mph /  22.2 km/h 57 % 0 in /  0.0 mm
16:45 67.5 °F /  19.7 °C 51.6 °F /  10.9 °C 30.3 in /  1025.3 hPa West 13.8 mph /  22.2 km/h 13.8 mph /  22.2 km/h 57 % 0 in /  0.0 mm
16:50 67.3 °F /  19.6 °C 52 °F /  11.1 °C 30.3 in /  1025.6 hPa West 14 mph /  22.5 km/h 14 mph /  22.5 km/h 58 % 0 in /  0.0 mm
16:53 66.9 °F /  19.4 °C 51.6 °F /  10.9 °C 30.3 in /  1025.3 hPa WSW 18.4 mph /  29.6 km/h 18.4 mph /  29.6 km/h 58 % 0 in /  0.0 mm
16:58 66.7 °F /  19.3 °C 52 °F /  11.1 °C 30.3 in /  1025.3 hPa West 17.3 mph /  27.8 km/h 17.3 mph /  27.8 km/h 59 % 0 in /  0.0 mm
16:59 66.7 °F /  19.3 °C 52 °F /  11.1 °C 30.3 in /  1025.3 hPa West 17.3 mph /  27.8 km/h 17.3 mph /  27.8 km/h 59 % 0 in /  0.0 mm
17:01 66.6 °F /  19.2 °C 51.8 °F /  11.0 °C 30.3 in /  1025.3 hPa West 17.3 mph /  27.8 km/h 17.3 mph /  27.8 km/h 59 % 0 in /  0.0 mm
17:06 66.4 °F /  19.1 °C 52.2 °F /  11.2 °C 30.3 in /  1025.3 hPa West 19.6 mph /  31.5 km/h 19.6 mph /  31.5 km/h 60 % 0 in /  0.0 mm
17:07 66.4 °F /  19.1 °C 52.2 °F /  11.2 °C 30.3 in /  1025.3 hPa West 15 mph /  24.1 km/h 15 mph /  24.1 km/h 60 % 0 in /  0.0 mm
17:12 66.2 °F /  19.0 °C 52 °F /  11.1 °C 30.3 in /  1025.3 hPa West 19.6 mph /  31.5 km/h 19.6 mph /  31.5 km/h 60 % 0 in /  0.0 mm
17:13 66.2 °F /  19.0 °C 52 °F /  11.1 °C 30.3 in /  1025.3 hPa WNW 19.6 mph /  31.5 km/h 19.6 mph /  31.5 km/h 60 % 0 in /  0.0 mm
17:14 66.2 °F /  19.0 °C 52 °F /  11.1 °C 30.3 in /  1025.3 hPa West 17.3 mph /  27.8 km/h 17.3 mph /  27.8 km/h 60 % 0 in /  0.0 mm
17:19 66 °F /  18.9 °C 52.3 °F /  11.3 °C 30.3 in /  1024.9 hPa West 12.7 mph /  20.4 km/h 12.7 mph /  20.4 km/h 61 % 0 in /  0.0 mm
17:24 66 °F /  18.9 °C 52.2 °F /  11.2 °C 30.3 in /  1025.3 hPa WNW 18.4 mph /  29.6 km/h 18.4 mph /  29.6 km/h 61 % 0 in /  0.0 mm
17:25 66 °F /  18.9 °C 52.2 °F /  11.2 °C 30.3 in /  1025.3 hPa WNW 18.4 mph /  29.6 km/h 18.4 mph /  29.6 km/h 61 % 0 in /  0.0 mm
17:30 65.8 °F /  18.8 °C 51.6 °F /  10.9 °C 30.3 in /  1025.3 hPa West 19.6 mph /  31.5 km/h 19.6 mph /  31.5 km/h 60 % 0 in /  0.0 mm
17:31 66 °F /  18.9 °C 51.6 °F /  10.9 °C 30.3 in /  1025.3 hPa West 19.6 mph /  31.5 km/h 19.6 mph /  31.5 km/h 60 % 0 in /  0.0 mm
17:36 66 °F /  18.9 °C 51.6 °F /  10.9 °C 30.3 in /  1025.3 hPa West 17.3 mph /  27.8 km/h 17.3 mph /  27.8 km/h 60 % 0 in /  0.0 mm
17:41 65.8 °F /  18.8 °C 51.6 °F /  10.9 °C 30.3 in /  1025.6 hPa West 16.1 mph /  25.9 km/h 16.1 mph /  25.9 km/h 60 % 0 in /  0.0 mm
17:42 65.8 °F /  18.8 °C 51.6 °F /  10.9 °C 30.3 in /  1025.6 hPa West 16.1 mph /  25.9 km/h 16.1 mph /  25.9 km/h 60 % 0 in /  0.0 mm
17:44 65.8 °F /  18.8 °C 51.4 °F /  10.8 °C 30.3 in /  1025.6 hPa West 16.1 mph /  25.9 km/h 16.1 mph /  25.9 km/h 60 % 0 in /  0.0 mm
17:47 65.8 °F /  18.8 °C 51.1 °F /  10.6 °C 30.3 in /  1025.6 hPa WNW 19.6 mph /  31.5 km/h 19.6 mph /  31.5 km/h 59 % 0 in /  0.0 mm
17:52 65.8 °F /  18.8 °C 51.6 °F /  10.9 °C 30.3 in /  1025.6 hPa West 12.7 mph /  20.4 km/h 12.7 mph /  20.4 km/h 60 % 0 in /  0.0 mm
17:57 65.8 °F /  18.8 °C 51.1 °F /  10.6 °C 30.3 in /  1026.0 hPa West 17.3 mph /  27.8 km/h 17.3 mph /  27.8 km/h 59 % 0 in /  0.0 mm
17:58 65.8 °F /  18.8 °C 51.1 °F /  10.6 °C 30.3 in /  1026.0 hPa West 17.3 mph /  27.8 km/h 17.3 mph /  27.8 km/h 59 % 0 in /  0.0 mm
18:03 65.8 °F /  18.8 °C 51.4 °F /  10.8 °C 30.3 in /  1025.6 hPa WSW 15 mph /  24.1 km/h 15 mph /  24.1 km/h 60 % 0 in /  0.0 mm
18:04 65.8 °F /  18.8 °C 51.4 °F /  10.8 °C 30.3 in /  1026.0 hPa West 15 mph /  24.1 km/h 15 mph /  24.1 km/h 60 % 0 in /  0.0 mm
18:09 65.7 °F /  18.7 °C 51.3 °F /  10.7 °C 30.3 in /  1026.0 hPa West 17.3 mph /  27.8 km/h 17.3 mph /  27.8 km/h 60 % 0 in /  0.0 mm
18:10 65.7 °F /  18.7 °C 51.3 °F /  10.7 °C 30.3 in /  1026.0 hPa West 16 mph /  25.7 km/h 16 mph /  25.7 km/h 60 % 0 in /  0.0 mm
18:14 65.7 °F /  18.7 °C 51.3 °F /  10.7 °C 30.3 in /  1026.0 hPa West 19 mph /  30.6 km/h 19 mph /  30.6 km/h 60 % 0 in /  0.0 mm
18:16 65.5 °F /  18.6 °C 51.3 °F /  10.7 °C 30.3 in /  1026.0 hPa West 19.6 mph /  31.5 km/h 19.6 mph /  31.5 km/h 60 % 0 in /  0.0 mm
18:21 65.5 °F /  18.6 °C 51.6 °F /  10.9 °C 30.3 in /  1026.0 hPa West 16 mph /  25.7 km/h 16 mph /  25.7 km/h 61 % 0 in /  0.0 mm
18:24 65.1 °F /  18.4 °C 51.4 °F /  10.8 °C 30.3 in /  1026.0 hPa West 15 mph /  24.1 km/h 15 mph /  24.1 km/h 61 % 0 in /  0.0 mm
18:27 65.1 °F /  18.4 °C 51.3 °F /  10.7 °C 30.3 in /  1026.0 hPa West 19 mph /  30.6 km/h 19 mph /  30.6 km/h 61 % 0 in /  0.0 mm
18:29 65.1 °F /  18.4 °C 51.8 °F /  11.0 °C 30.3 in /  1026.3 hPa WSW 19.6 mph /  31.5 km/h 19.6 mph /  31.5 km/h 62 % 0 in /  0.0 mm
18:34 65.1 °F /  18.4 °C 51.8 °F /  11.0 °C 30.3 in /  1026.3 hPa West 17.3 mph /  27.8 km/h 17.3 mph /  27.8 km/h 62 % 0 in /  0.0 mm
18:37 64.9 °F /  18.3 °C 51.6 °F /  10.9 °C 30.3 in /  1026.3 hPa West 13 mph /  20.9 km/h 13 mph /  20.9 km/h 62 % 0 in /  0.0 mm
18:42 64.9 °F /  18.3 °C 51.6 °F /  10.9 °C 30.3 in /  1026.3 hPa West 16.1 mph /  25.9 km/h 16.1 mph /  25.9 km/h 62 % 0 in /  0.0 mm
18:43 64.8 °F /  18.2 °C 51.4 °F /  10.8 °C 30.3 in /  1026.3 hPa WSW 17.3 mph /  27.8 km/h 17.3 mph /  27.8 km/h 62 % 0 in /  0.0 mm
18:48 64.8 °F /  18.2 °C 51.4 °F /  10.8 °C 30.3 in /  1026.3 hPa WSW 18.4 mph /  29.6 km/h 18.4 mph /  29.6 km/h 62 % 0 in /  0.0 mm
18:51 64.8 °F /  18.2 °C 51.4 °F /  10.8 °C 30.3 in /  1026.6 hPa West 18.4 mph /  29.6 km/h 18.4 mph /  29.6 km/h 62 % 0 in /  0.0 mm
18:53 64.8 °F /  18.2 °C 51.8 °F /  11.0 °C 30.3 in /  1026.6 hPa West 18.4 mph /  29.6 km/h 18.4 mph /  29.6 km/h 63 % 0 in /  0.0 mm
18:58 64.6 °F /  18.1 °C 51.6 °F /  10.9 °C 30.3 in /  1026.6 hPa West 11.5 mph /  18.5 km/h 11.5 mph /  18.5 km/h 63 % 0 in /  0.0 mm
18:59 64.6 °F /  18.1 °C 51.6 °F /  10.9 °C 30.3 in /  1026.6 hPa WNW 11.5 mph /  18.5 km/h 11.5 mph /  18.5 km/h 63 % 0 in /  0.0 mm
19:04 64.4 °F /  18.0 °C 52 °F /  11.1 °C 30.3 in /  1026.6 hPa WSW 18.4 mph /  29.6 km/h 18.4 mph /  29.6 km/h 64 % 0 in /  0.0 mm
19:05 64.4 °F /  18.0 °C 52.3 °F /  11.3 °C 30.3 in /  1026.6 hPa WSW 17.3 mph /  27.8 km/h 17.3 mph /  27.8 km/h 65 % 0 in /  0.0 mm
19:07 64.2 °F /  17.9 °C 52.3 °F /  11.3 °C 30.3 in /  1026.6 hPa WSW 19.6 mph /  31.5 km/h 19.6 mph /  31.5 km/h 65 % 0 in /  0.0 mm
19:12 64.2 °F /  17.9 °C 52.7 °F /  11.5 °C 30.3 in /  1027.0 hPa WSW 19.6 mph /  31.5 km/h 19.6 mph /  31.5 km/h 66 % 0 in /  0.0 mm
19:16 64.2 °F /  17.9 °C 52.5 °F /  11.4 °C 30.3 in /  1027.0 hPa WSW 13 mph /  20.9 km/h 13 mph /  20.9 km/h 66 % 0 in /  0.0 mm
19:18 64.2 °F /  17.9 °C 52.5 °F /  11.4 °C 30.3 in /  1027.0 hPa WSW 15 mph /  24.1 km/h 15 mph /  24.1 km/h 66 % 0 in /  0.0 mm
19:22 64 °F /  17.8 °C 52.5 °F /  11.4 °C 30.3 in /  1027.3 hPa SW 16 mph /  25.7 km/h 16 mph /  25.7 km/h 66 % 0 in /  0.0 mm
19:24 64 °F /  17.8 °C 52.9 °F /  11.6 °C 30.3 in /  1027.3 hPa West 20.7 mph /  33.3 km/h 20.7 mph /  33.3 km/h 67 % 0 in /  0.0 mm
19:30 63.9 °F /  17.7 °C 53.1 °F /  11.7 °C 30.3 in /  1027.3 hPa West 20.7 mph /  33.3 km/h 20.7 mph /  33.3 km/h 68 % 0 in /  0.0 mm
19:33 63.9 °F /  17.7 °C 53.4 °F /  11.9 °C 30.3 in /  1027.3 hPa WSW 19.6 mph /  31.5 km/h 19.6 mph /  31.5 km/h 69 % 0 in /  0.0 mm
19:37 63.7 °F /  17.6 °C 53.2 °F /  11.8 °C 30.3 in /  1027.3 hPa West 19.6 mph /  31.5 km/h 19.6 mph /  31.5 km/h 69 % 0 in /  0.0 mm
19:42 63.7 °F /  17.6 °C 53.6 °F /  12.0 °C 30.4 in /  1027.7 hPa WSW 18.4 mph /  29.6 km/h 18.4 mph /  29.6 km/h 70 % 0 in /  0.0 mm
19:44 63.7 °F /  17.6 °C 53.6 °F /  12.0 °C 30.4 in /  1027.7 hPa WSW 19.6 mph /  31.5 km/h 19.6 mph /  31.5 km/h 70 % 0 in /  0.0 mm
19:48 63.5 °F /  17.5 °C 53.4 °F /  11.9 °C 30.4 in /  1027.7 hPa WSW 17.3 mph /  27.8 km/h 17.3 mph /  27.8 km/h 70 % 0 in /  0.0 mm
19:51 63.3 °F /  17.4 °C 53.8 °F /  12.1 °C 30.4 in /  1027.7 hPa WSW 21.9 mph /  35.2 km/h 21.9 mph /  35.2 km/h 71 % 0 in /  0.0 mm
19:54 63.3 °F /  17.4 °C 53.8 °F /  12.1 °C 30.4 in /  1028.0 hPa WSW 19.6 mph /  31.5 km/h 19.6 mph /  31.5 km/h 71 % 0 in /  0.0 mm
19:56 63.3 °F /  17.4 °C 53.8 °F /  12.1 °C 30.4 in /  1028.0 hPa WSW 19.6 mph /  31.5 km/h 19.6 mph /  31.5 km/h 71 % 0 in /  0.0 mm
20:00 63 °F /  17.2 °C 53.8 °F /  12.1 °C 30.4 in /  1027.7 hPa West 20.7 mph /  33.3 km/h 20.7 mph /  33.3 km/h 72 % 0 in /  0.0 mm
20:04 63 °F /  17.2 °C 53.8 °F /  12.1 °C 30.4 in /  1028.0 hPa WSW 15 mph /  24.1 km/h 15 mph /  24.1 km/h 72 % 0 in /  0.0 mm
20:06 63 °F /  17.2 °C 54.1 °F /  12.3 °C 30.4 in /  1028.0 hPa West 16.1 mph /  25.9 km/h 16.1 mph /  25.9 km/h 73 % 0 in /  0.0 mm
20:10 62.8 °F /  17.1 °C 54 °F /  12.2 °C 30.4 in /  1028.0 hPa West 17.3 mph /  27.8 km/h 17.3 mph /  27.8 km/h 73 % 0 in /  0.0 mm
20:15 62.8 °F /  17.1 °C 54.3 °F /  12.4 °C 30.4 in /  1028.0 hPa WSW 18 mph /  29.0 km/h 18 mph /  29.0 km/h 74 % 0 in /  0.0 mm
20:17 63 °F /  17.2 °C 54.5 °F /  12.5 °C 30.4 in /  1028.0 hPa West 19.6 mph /  31.5 km/h 19.6 mph /  31.5 km/h 74 % 0 in /  0.0 mm
20:22 63 °F /  17.2 °C 54.7 °F /  12.6 °C 30.4 in /  1028.3 hPa WSW 19.6 mph /  31.5 km/h 19.6 mph /  31.5 km/h 74 % 0 in /  0.0 mm
20:23 63 °F /  17.2 °C 54.1 °F /  12.3 °C 30.4 in /  1028.3 hPa WSW 19.6 mph /  31.5 km/h 19.6 mph /  31.5 km/h 73 % 0 in /  0.0 mm
20:28 63 °F /  17.2 °C 54.1 °F /  12.3 °C 30.4 in /  1028.3 hPa West 12 mph /  19.3 km/h 12 mph /  19.3 km/h 73 % 0 in /  0.0 mm
20:29 63 °F /  17.2 °C 54.1 °F /  12.3 °C 30.4 in /  1028.7 hPa West 10.4 mph /  16.7 km/h 10.4 mph /  16.7 km/h 73 % 0 in /  0.0 mm
20:34 63 °F /  17.2 °C 54.1 °F /  12.3 °C 30.4 in /  1028.7 hPa West 12.7 mph /  20.4 km/h 12.7 mph /  20.4 km/h 73 % 0 in /  0.0 mm
20:36 63 °F /  17.2 °C 54.1 °F /  12.3 °C 30.4 in /  1028.7 hPa West 12.7 mph /  20.4 km/h 12.7 mph /  20.4 km/h 73 % 0 in /  0.0 mm
20:41 63 °F /  17.2 °C 54.1 °F /  12.3 °C 30.4 in /  1028.7 hPa West 15 mph /  24.1 km/h 15 mph /  24.1 km/h 73 % 0 in /  0.0 mm
20:43 63.1 °F /  17.3 °C 54.3 °F /  12.4 °C 30.4 in /  1028.7 hPa WSW 15 mph /  24.1 km/h 15 mph /  24.1 km/h 73 % 0 in /  0.0 mm
20:48 63.3 °F /  17.4 °C 54.5 °F /  12.5 °C 30.4 in /  1028.7 hPa West 15 mph /  24.1 km/h 15 mph /  24.1 km/h 73 % 0 in /  0.0 mm
20:53 63.3 °F /  17.4 °C 54.5 °F /  12.5 °C 30.4 in /  1028.7 hPa WSW 11.5 mph /  18.5 km/h 11.5 mph /  18.5 km/h 73 % 0 in /  0.0 mm
20:54 63.3 °F /  17.4 °C 54.5 °F /  12.5 °C 30.4 in /  1028.7 hPa West 10.4 mph /  16.7 km/h 10.4 mph /  16.7 km/h 73 % 0 in /  0.0 mm
20:59 63.3 °F /  17.4 °C 54.1 °F /  12.3 °C 30.4 in /  1028.7 hPa WSW 15 mph /  24.1 km/h 15 mph /  24.1 km/h 72 % 0 in /  0.0 mm
21:03 63.3 °F /  17.4 °C 54.1 °F /  12.3 °C 30.4 in /  1028.7 hPa WSW 15 mph /  24.1 km/h 15 mph /  24.1 km/h 72 % 0 in /  0.0 mm
21:04 63.3 °F /  17.4 °C 53.8 °F /  12.1 °C 30.4 in /  1028.7 hPa West 12.7 mph /  20.4 km/h 12.7 mph /  20.4 km/h 71 % 0 in /  0.0 mm
21:09 63.3 °F /  17.4 °C 54.1 °F /  12.3 °C 30.4 in /  1028.7 hPa WSW 17.3 mph /  27.8 km/h 17.3 mph /  27.8 km/h 72 % 0 in /  0.0 mm
21:10 63.3 °F /  17.4 °C 54.1 °F /  12.3 °C 30.4 in /  1028.7 hPa SW 17.3 mph /  27.8 km/h 17.3 mph /  27.8 km/h 72 % 0 in /  0.0 mm
21:14 63.3 °F /  17.4 °C 54.1 °F /  12.3 °C 30.4 in /  1028.7 hPa West 13.8 mph /  22.2 km/h 13.8 mph /  22.2 km/h 72 % 0 in /  0.0 mm
21:15 63.3 °F /  17.4 °C 54.1 °F /  12.3 °C 30.4 in /  1028.7 hPa WSW 12.7 mph /  20.4 km/h 12.7 mph /  20.4 km/h 72 % 0 in /  0.0 mm
21:20 63.3 °F /  17.4 °C 54.1 °F /  12.3 °C 30.4 in /  1029.0 hPa WSW 12 mph /  19.3 km/h 12 mph /  19.3 km/h 72 % 0 in /  0.0 mm
21:21 63.3 °F /  17.4 °C 54.1 °F /  12.3 °C 30.4 in /  1029.0 hPa WSW 14 mph /  22.5 km/h 14 mph /  22.5 km/h 72 % 0 in /  0.0 mm
21:26 63.1 °F /  17.3 °C 54 °F /  12.2 °C 30.4 in /  1029.0 hPa WSW 11.5 mph /  18.5 km/h 11.5 mph /  18.5 km/h 72 % 0 in /  0.0 mm
21:28 63.1 °F /  17.3 °C 54 °F /  12.2 °C 30.4 in /  1029.0 hPa WSW 11.5 mph /  18.5 km/h 11.5 mph /  18.5 km/h 72 % 0 in /  0.0 mm
21:33 63.1 °F /  17.3 °C 53.6 °F /  12.0 °C 30.4 in /  1029.3 hPa West 11.5 mph /  18.5 km/h 11.5 mph /  18.5 km/h 71 % 0 in /  0.0 mm
21:38 63.1 °F /  17.3 °C 53.6 °F /  12.0 °C 30.4 in /  1029.3 hPa West 15 mph /  24.1 km/h 15 mph /  24.1 km/h 71 % 0 in /  0.0 mm
21:40 63.1 °F /  17.3 °C 53.6 °F /  12.0 °C 30.4 in /  1029.3 hPa WSW 15 mph /  24.1 km/h 15 mph /  24.1 km/h 71 % 0 in /  0.0 mm
21:45 63.3 °F /  17.4 °C 53.2 °F /  11.8 °C 30.4 in /  1029.3 hPa WSW 13.8 mph /  22.2 km/h 13.8 mph /  22.2 km/h 70 % 0 in /  0.0 mm
21:50 63.5 °F /  17.5 °C 53.4 °F /  11.9 °C 30.4 in /  1029.3 hPa WSW 13.8 mph /  22.2 km/h 13.8 mph /  22.2 km/h 70 % 0 in /  0.0 mm
21:51 63.5 °F /  17.5 °C 53.4 °F /  11.9 °C 30.4 in /  1029.3 hPa WSW 13.8 mph /  22.2 km/h 13.8 mph /  22.2 km/h 70 % 0 in /  0.0 mm
21:56 63.5 °F /  17.5 °C 53.4 °F /  11.9 °C 30.4 in /  1029.3 hPa West 11 mph /  17.7 km/h 11 mph /  17.7 km/h 70 % 0 in /  0.0 mm
21:57 63.5 °F /  17.5 °C 53.4 °F /  11.9 °C 30.4 in /  1029.3 hPa West 13 mph /  20.9 km/h 13 mph /  20.9 km/h 70 % 0 in /  0.0 mm
22:02 63.5 °F /  17.5 °C 53.4 °F /  11.9 °C 30.4 in /  1029.7 hPa WSW 11.5 mph /  18.5 km/h 11.5 mph /  18.5 km/h 70 % 0 in /  0.0 mm
22:03 63.5 °F /  17.5 °C 53.4 °F /  11.9 °C 30.4 in /  1029.7 hPa West 13 mph /  20.9 km/h 13 mph /  20.9 km/h 70 % 0 in /  0.0 mm
22:08 63.3 °F /  17.4 °C 53.8 °F /  12.1 °C 30.4 in /  1029.7 hPa West 12.7 mph /  20.4 km/h 12.7 mph /  20.4 km/h 71 % 0 in /  0.0 mm
22:13 63.1 °F /  17.3 °C 53.6 °F /  12.0 °C 30.4 in /  1029.7 hPa WSW 12.7 mph /  20.4 km/h 12.7 mph /  20.4 km/h 71 % 0 in /  0.0 mm
22:14 63.1 °F /  17.3 °C 53.6 °F /  12.0 °C 30.4 in /  1029.7 hPa WSW 12.7 mph /  20.4 km/h 12.7 mph /  20.4 km/h 71 % 0 in /  0.0 mm
22:18 63.1 °F /  17.3 °C 53.6 °F /  12.0 °C 30.4 in /  1030.0 hPa West 10.4 mph /  16.7 km/h 10.4 mph /  16.7 km/h 71 % 0 in /  0.0 mm
22:19 63.1 °F /  17.3 °C 54 °F /  12.2 °C 30.4 in /  1030.0 hPa WSW 8.1 mph /  13.0 km/h 8.1 mph /  13.0 km/h 72 % 0 in /  0.0 mm
22:24 63.1 °F /  17.3 °C 53.4 °F /  11.9 °C 30.4 in /  1030.0 hPa West 9.2 mph /  14.8 km/h 9.2 mph /  14.8 km/h 71 % 0 in /  0.0 mm
22:26 63.1 °F /  17.3 °C 53.4 °F /  11.9 °C 30.4 in /  1030.0 hPa West 9.2 mph /  14.8 km/h 9.2 mph /  14.8 km/h 71 % 0 in /  0.0 mm
22:28 63.1 °F /  17.3 °C 53.2 °F /  11.8 °C 30.4 in /  1030.0 hPa NW 5.8 mph /  9.3 km/h 5.8 mph /  9.3 km/h 70 % 0 in /  0.0 mm
22:33 63.3 °F /  17.4 °C 53.1 °F /  11.7 °C 30.4 in /  1029.7 hPa NNW 6.9 mph /  11.1 km/h 6.9 mph /  11.1 km/h 69 % 0 in /  0.0 mm
22:38 63.3 °F /  17.4 °C 53.1 °F /  11.7 °C 30.4 in /  1029.7 hPa WNW 2.3 mph /  3.7 km/h 2.3 mph /  3.7 km/h 69 % 0 in /  0.0 mm
22:39 63.5 °F /  17.5 °C 53.1 °F /  11.7 °C 30.4 in /  1030.0 hPa West 3.5 mph /  5.6 km/h 3.5 mph /  5.6 km/h 69 % 0 in /  0.0 mm
22:44 63.5 °F /  17.5 °C 53.1 °F /  11.7 °C 30.4 in /  1030.0 hPa NW 4.6 mph /  7.4 km/h 4.6 mph /  7.4 km/h 69 % 0 in /  0.0 mm
22:45 63.5 °F /  17.5 °C 52.7 °F /  11.5 °C 30.4 in /  1030.0 hPa NNW 6 mph /  9.7 km/h 6 mph /  9.7 km/h 68 % 0 in /  0.0 mm
22:46 63.5 °F /  17.5 °C 52.7 °F /  11.5 °C 30.4 in /  1030.0 hPa NNW 5.8 mph /  9.3 km/h 5.8 mph /  9.3 km/h 68 % 0 in /  0.0 mm
22:51 63.7 °F /  17.6 °C 52.9 °F /  11.6 °C 30.4 in /  1030.0 hPa West 4.6 mph /  7.4 km/h 4.6 mph /  7.4 km/h 68 % 0 in /  0.0 mm
22:52 63.7 °F /  17.6 °C 52.9 °F /  11.6 °C 30.4 in /  1030.0 hPa West 4.6 mph /  7.4 km/h 4.6 mph /  7.4 km/h 68 % 0 in /  0.0 mm
22:57 63.7 °F /  17.6 °C 52.5 °F /  11.4 °C 30.4 in /  1030.0 hPa WSW 8.1 mph /  13.0 km/h 8.1 mph /  13.0 km/h 67 % 0 in /  0.0 mm
23:02 63.7 °F /  17.6 °C 52.5 °F /  11.4 °C 30.4 in /  1030.4 hPa NW 3.5 mph /  5.6 km/h 3.5 mph /  5.6 km/h 67 % 0 in /  0.0 mm
23:04 63.9 °F /  17.7 °C 52.5 °F /  11.4 °C 30.4 in /  1030.4 hPa WSW 5.8 mph /  9.3 km/h 5.8 mph /  9.3 km/h 67 % 0 in /  0.0 mm
23:09 63.9 °F /  17.7 °C 52.5 °F /  11.4 °C 30.4 in /  1030.4 hPa West 6.9 mph /  11.1 km/h 6.9 mph /  11.1 km/h 67 % 0 in /  0.0 mm
23:10 63.9 °F /  17.7 °C 52.5 °F /  11.4 °C 30.4 in /  1030.4 hPa WSW 5 mph /  8.0 km/h 7 mph /  11.3 km/h 67 % 0 in /  0.0 mm
23:15 63.9 °F /  17.7 °C 52.2 °F /  11.2 °C 30.4 in /  1030.4 hPa WSW 6 mph /  9.7 km/h 6 mph /  9.7 km/h 66 % 0 in /  0.0 mm
23:20 63.9 °F /  17.7 °C 52.5 °F /  11.4 °C 30.4 in /  1030.4 hPa West 5.8 mph /  9.3 km/h 5.8 mph /  9.3 km/h 67 % 0 in /  0.0 mm
23:21 63.9 °F /  17.7 °C 52.5 °F /  11.4 °C 30.4 in /  1030.4 hPa West 7 mph /  11.3 km/h 7 mph /  11.3 km/h 67 % 0 in /  0.0 mm
23:22 63.9 °F /  17.7 °C 52.5 °F /  11.4 °C 30.4 in /  1030.4 hPa WSW 9.2 mph /  14.8 km/h 9.2 mph /  14.8 km/h 67 % 0 in /  0.0 mm
23:27 63.9 °F /  17.7 °C 52.3 °F /  11.3 °C 30.4 in /  1030.4 hPa West 5.8 mph /  9.3 km/h 5.8 mph /  9.3 km/h 66 % 0 in /  0.0 mm
23:32 63.9 °F /  17.7 °C 52.5 °F /  11.4 °C 30.4 in /  1030.4 hPa West 5.8 mph /  9.3 km/h 5.8 mph /  9.3 km/h 67 % 0 in /  0.0 mm
23:34 63.9 °F /  17.7 °C 52.5 °F /  11.4 °C 30.4 in /  1030.4 hPa West 5.8 mph /  9.3 km/h 5.8 mph /  9.3 km/h 67 % 0 in /  0.0 mm
23:39 63.7 °F /  17.6 °C 51.6 °F /  10.9 °C 30.4 in /  1030.4 hPa NW 5.8 mph /  9.3 km/h 5.8 mph /  9.3 km/h 65 % 0 in /  0.0 mm
23:40 63.7 °F /  17.6 °C 51.3 °F /  10.7 °C 30.4 in /  1030.4 hPa WNW 5.8 mph /  9.3 km/h 5.8 mph /  9.3 km/h 64 % 0 in /  0.0 mm
23:45 63.9 °F /  17.7 °C 50.5 °F /  10.3 °C 30.4 in /  1030.4 hPa WNW 5.8 mph /  9.3 km/h 5.8 mph /  9.3 km/h 62 % 0 in /  0.0 mm
23:50 64 °F /  17.8 °C 51.1 °F /  10.6 °C 30.4 in /  1030.4 hPa NW 4.6 mph /  7.4 km/h 4.6 mph /  7.4 km/h 63 % 0 in /  0.0 mm
23:51 64 °F /  17.8 °C 51.1 °F /  10.6 °C 30.4 in /  1030.4 hPa NW 4.6 mph /  7.4 km/h 4.6 mph /  7.4 km/h 63 % 0 in /  0.0 mm
23:53 63.9 °F /  17.7 °C 51.1 °F /  10.6 °C 30.4 in /  1030.4 hPa West 7 mph /  11.3 km/h 7 mph /  11.3 km/h 63 % 0 in /  0.0 mm
23:57 63.9 °F /  17.7 °C 50.5 °F /  10.3 °C 30.4 in /  1030.7 hPa West 5.8 mph /  9.3 km/h 5.8 mph /  9.3 km/h 62 % 0 in /  0.0 mm
Puerto Banus, Marbella
Elogios de Weather Underground - 2.25 mb

Guión original por  Jim McMurry - jmcmurry@mwt.net Adaptado para la plantilla por  Wim van der Kuil - Leuven-Template.eu

Usted encontrará nuestra información del tiempo también en:

Weather Underground

Iberian Peninsula Weather Network